<?xml version="1.0" encoding="UTF-8" standalone="no" ?>
<gpx xmlns="http://www.topografix.com/GPX/1/1" xmlns:xsi="http://www.w3.org/2001/XMLSchema-instance" xsi:schemaLocation="http://www.topografix.com/GPX/1/1 http://www.topografix.com/GPX/1/1/gpx.xsd" version="1.1" creator="VisuGPX - https://www.visugpx.com">
  <metadata>
    <name>Randonnée du 08/10/2022 à 08:28</name>
  </metadata>
  <trk>
    <name><![CDATA[Randonnée du 08/10/2022 à 08:28]]></name>
    <trkseg>
      <trkpt lat="43.52801" lon="5.64356">
        <ele>400</ele>
        <time>2022-10-08T08:28:10+02:00</time>
      </trkpt>
      <trkpt lat="43.52805" lon="5.64346">
        <ele>368</ele>
        <time>2022-10-08T08:28:11+02:00</time>
      </trkpt>
      <trkpt lat="43.52787" lon="5.64343">
        <ele>401</ele>
        <time>2022-10-08T08:28:16+02:00</time>
      </trkpt>
      <trkpt lat="43.52774" lon="5.64378">
        <ele>399</ele>
        <time>2022-10-08T08:29:15+02:00</time>
      </trkpt>
      <trkpt lat="43.52771" lon="5.64416">
        <ele>401</ele>
        <time>2022-10-08T08:29:35+02:00</time>
      </trkpt>
      <trkpt lat="43.52766" lon="5.64453">
        <ele>401</ele>
        <time>2022-10-08T08:30:04+02:00</time>
      </trkpt>
      <trkpt lat="43.52762" lon="5.64492">
        <ele>401</ele>
        <time>2022-10-08T08:30:26+02:00</time>
      </trkpt>
      <trkpt lat="43.5276" lon="5.6453">
        <ele>403</ele>
        <time>2022-10-08T08:30:45+02:00</time>
      </trkpt>
      <trkpt lat="43.52752" lon="5.64567">
        <ele>405</ele>
        <time>2022-10-08T08:31:05+02:00</time>
      </trkpt>
      <trkpt lat="43.52748" lon="5.64605">
        <ele>405</ele>
        <time>2022-10-08T08:31:22+02:00</time>
      </trkpt>
      <trkpt lat="43.5274" lon="5.64642">
        <ele>406</ele>
        <time>2022-10-08T08:31:39+02:00</time>
      </trkpt>
      <trkpt lat="43.52726" lon="5.64676">
        <ele>408</ele>
        <time>2022-10-08T08:31:58+02:00</time>
      </trkpt>
      <trkpt lat="43.52712" lon="5.64711">
        <ele>409</ele>
        <time>2022-10-08T08:32:26+02:00</time>
      </trkpt>
      <trkpt lat="43.52695" lon="5.64743">
        <ele>409</ele>
        <time>2022-10-08T08:32:44+02:00</time>
      </trkpt>
      <trkpt lat="43.52675" lon="5.64769">
        <ele>378</ele>
        <time>2022-10-08T08:33:08+02:00</time>
      </trkpt>
      <trkpt lat="43.5266" lon="5.64801">
        <ele>363</ele>
        <time>2022-10-08T08:33:24+02:00</time>
      </trkpt>
      <trkpt lat="43.52648" lon="5.64835">
        <ele>382</ele>
        <time>2022-10-08T08:33:45+02:00</time>
      </trkpt>
      <trkpt lat="43.52634" lon="5.64869">
        <ele>405</ele>
        <time>2022-10-08T08:34:07+02:00</time>
      </trkpt>
      <trkpt lat="43.52622" lon="5.64902">
        <ele>403</ele>
        <time>2022-10-08T08:34:24+02:00</time>
      </trkpt>
      <trkpt lat="43.52614" lon="5.64939">
        <ele>403</ele>
        <time>2022-10-08T08:35:36+02:00</time>
      </trkpt>
      <trkpt lat="43.52601" lon="5.64973">
        <ele>401</ele>
        <time>2022-10-08T08:36:34+02:00</time>
      </trkpt>
      <trkpt lat="43.52592" lon="5.65009">
        <ele>399</ele>
        <time>2022-10-08T08:36:57+02:00</time>
      </trkpt>
      <trkpt lat="43.52579" lon="5.65043">
        <ele>396</ele>
        <time>2022-10-08T08:37:19+02:00</time>
      </trkpt>
      <trkpt lat="43.52573" lon="5.65079">
        <ele>395</ele>
        <time>2022-10-08T08:37:36+02:00</time>
      </trkpt>
      <trkpt lat="43.52567" lon="5.65115">
        <ele>393</ele>
        <time>2022-10-08T08:37:53+02:00</time>
      </trkpt>
      <trkpt lat="43.5256" lon="5.65153">
        <ele>391</ele>
        <time>2022-10-08T08:38:13+02:00</time>
      </trkpt>
      <trkpt lat="43.52559" lon="5.6519">
        <ele>388</ele>
        <time>2022-10-08T08:38:30+02:00</time>
      </trkpt>
      <trkpt lat="43.52552" lon="5.65226">
        <ele>387</ele>
        <time>2022-10-08T08:38:48+02:00</time>
      </trkpt>
      <trkpt lat="43.52549" lon="5.65263">
        <ele>384</ele>
        <time>2022-10-08T08:39:06+02:00</time>
      </trkpt>
      <trkpt lat="43.52551" lon="5.65301">
        <ele>384</ele>
        <time>2022-10-08T08:39:28+02:00</time>
      </trkpt>
      <trkpt lat="43.52553" lon="5.65338">
        <ele>381</ele>
        <time>2022-10-08T08:39:46+02:00</time>
      </trkpt>
      <trkpt lat="43.52546" lon="5.65376">
        <ele>380</ele>
        <time>2022-10-08T08:40:02+02:00</time>
      </trkpt>
      <trkpt lat="43.52534" lon="5.65411">
        <ele>379</ele>
        <time>2022-10-08T08:40:19+02:00</time>
      </trkpt>
      <trkpt lat="43.5252" lon="5.65445">
        <ele>378</ele>
        <time>2022-10-08T08:40:46+02:00</time>
      </trkpt>
      <trkpt lat="43.52503" lon="5.65474">
        <ele>379</ele>
        <time>2022-10-08T08:41:13+02:00</time>
      </trkpt>
      <trkpt lat="43.52476" lon="5.65482">
        <ele>376</ele>
        <time>2022-10-08T08:41:33+02:00</time>
      </trkpt>
      <trkpt lat="43.52448" lon="5.65494">
        <ele>375</ele>
        <time>2022-10-08T08:41:53+02:00</time>
      </trkpt>
      <trkpt lat="43.52421" lon="5.65491">
        <ele>373</ele>
        <time>2022-10-08T08:42:18+02:00</time>
      </trkpt>
      <trkpt lat="43.52393" lon="5.6549">
        <ele>371</ele>
        <time>2022-10-08T08:42:40+02:00</time>
      </trkpt>
      <trkpt lat="43.52366" lon="5.65494">
        <ele>370</ele>
        <time>2022-10-08T08:43:00+02:00</time>
      </trkpt>
      <trkpt lat="43.52339" lon="5.65488">
        <ele>367</ele>
        <time>2022-10-08T08:43:27+02:00</time>
      </trkpt>
      <trkpt lat="43.52311" lon="5.65494">
        <ele>366</ele>
        <time>2022-10-08T08:43:44+02:00</time>
      </trkpt>
      <trkpt lat="43.52284" lon="5.65496">
        <ele>364</ele>
        <time>2022-10-08T08:44:06+02:00</time>
      </trkpt>
      <trkpt lat="43.52257" lon="5.65492">
        <ele>361</ele>
        <time>2022-10-08T08:44:25+02:00</time>
      </trkpt>
      <trkpt lat="43.52229" lon="5.65498">
        <ele>327</ele>
        <time>2022-10-08T08:44:49+02:00</time>
      </trkpt>
      <trkpt lat="43.52208" lon="5.65522">
        <ele>319</ele>
        <time>2022-10-08T08:45:09+02:00</time>
      </trkpt>
      <trkpt lat="43.52184" lon="5.65545">
        <ele>328</ele>
        <time>2022-10-08T08:45:26+02:00</time>
      </trkpt>
      <trkpt lat="43.52164" lon="5.65574">
        <ele>357</ele>
        <time>2022-10-08T08:45:43+02:00</time>
      </trkpt>
      <trkpt lat="43.52146" lon="5.65603">
        <ele>342</ele>
        <time>2022-10-08T08:46:00+02:00</time>
      </trkpt>
      <trkpt lat="43.5213" lon="5.65634">
        <ele>327</ele>
        <time>2022-10-08T08:46:23+02:00</time>
      </trkpt>
      <trkpt lat="43.52113" lon="5.65665">
        <ele>354</ele>
        <time>2022-10-08T08:46:47+02:00</time>
      </trkpt>
      <trkpt lat="43.52086" lon="5.65676">
        <ele>352</ele>
        <time>2022-10-08T08:47:09+02:00</time>
      </trkpt>
      <trkpt lat="43.52074" lon="5.65712">
        <ele>351</ele>
        <time>2022-10-08T08:47:30+02:00</time>
      </trkpt>
      <trkpt lat="43.52056" lon="5.6574">
        <ele>350</ele>
        <time>2022-10-08T08:47:53+02:00</time>
      </trkpt>
      <trkpt lat="43.52043" lon="5.65775">
        <ele>348</ele>
        <time>2022-10-08T08:48:13+02:00</time>
      </trkpt>
      <trkpt lat="43.52027" lon="5.65806">
        <ele>348</ele>
        <time>2022-10-08T08:48:34+02:00</time>
      </trkpt>
      <trkpt lat="43.52016" lon="5.65841">
        <ele>345</ele>
        <time>2022-10-08T08:48:50+02:00</time>
      </trkpt>
      <trkpt lat="43.52013" lon="5.65881">
        <ele>344</ele>
        <time>2022-10-08T08:49:17+02:00</time>
      </trkpt>
      <trkpt lat="43.51999" lon="5.65912">
        <ele>342</ele>
        <time>2022-10-08T08:49:36+02:00</time>
      </trkpt>
      <trkpt lat="43.51983" lon="5.65942">
        <ele>342</ele>
        <time>2022-10-08T08:49:54+02:00</time>
      </trkpt>
      <trkpt lat="43.51975" lon="5.65979">
        <ele>340</ele>
        <time>2022-10-08T08:50:13+02:00</time>
      </trkpt>
      <trkpt lat="43.51963" lon="5.66013">
        <ele>340</ele>
        <time>2022-10-08T08:50:39+02:00</time>
      </trkpt>
      <trkpt lat="43.51959" lon="5.6605">
        <ele>341</ele>
        <time>2022-10-08T08:50:56+02:00</time>
      </trkpt>
      <trkpt lat="43.51959" lon="5.66087">
        <ele>341</ele>
        <time>2022-10-08T08:51:10+02:00</time>
      </trkpt>
      <trkpt lat="43.5196" lon="5.66125">
        <ele>341</ele>
        <time>2022-10-08T08:51:28+02:00</time>
      </trkpt>
      <trkpt lat="43.5196" lon="5.66163">
        <ele>341</ele>
        <time>2022-10-08T08:51:49+02:00</time>
      </trkpt>
      <trkpt lat="43.51953" lon="5.662">
        <ele>340</ele>
        <time>2022-10-08T08:52:10+02:00</time>
      </trkpt>
      <trkpt lat="43.51964" lon="5.66234">
        <ele>339</ele>
        <time>2022-10-08T08:52:31+02:00</time>
      </trkpt>
      <trkpt lat="43.51972" lon="5.66271">
        <ele>339</ele>
        <time>2022-10-08T08:52:53+02:00</time>
      </trkpt>
      <trkpt lat="43.51968" lon="5.66308">
        <ele>336</ele>
        <time>2022-10-08T08:53:12+02:00</time>
      </trkpt>
      <trkpt lat="43.51956" lon="5.66342">
        <ele>336</ele>
        <time>2022-10-08T08:53:32+02:00</time>
      </trkpt>
      <trkpt lat="43.5195" lon="5.66378">
        <ele>336</ele>
        <time>2022-10-08T08:53:55+02:00</time>
      </trkpt>
      <trkpt lat="43.51947" lon="5.66418">
        <ele>336</ele>
        <time>2022-10-08T08:54:18+02:00</time>
      </trkpt>
      <trkpt lat="43.51943" lon="5.66456">
        <ele>336</ele>
        <time>2022-10-08T08:54:36+02:00</time>
      </trkpt>
      <trkpt lat="43.51956" lon="5.6649">
        <ele>336</ele>
        <time>2022-10-08T08:54:59+02:00</time>
      </trkpt>
      <trkpt lat="43.51971" lon="5.66521">
        <ele>336</ele>
        <time>2022-10-08T08:55:23+02:00</time>
      </trkpt>
      <trkpt lat="43.5198" lon="5.66557">
        <ele>306</ele>
        <time>2022-10-08T08:55:50+02:00</time>
      </trkpt>
      <trkpt lat="43.51995" lon="5.66588">
        <ele>285</ele>
        <time>2022-10-08T08:56:16+02:00</time>
      </trkpt>
      <trkpt lat="43.52017" lon="5.6661">
        <ele>281</ele>
        <time>2022-10-08T08:56:38+02:00</time>
      </trkpt>
      <trkpt lat="43.52031" lon="5.66646">
        <ele>275</ele>
        <time>2022-10-08T08:57:04+02:00</time>
      </trkpt>
      <trkpt lat="43.52048" lon="5.66675">
        <ele>331</ele>
        <time>2022-10-08T08:57:24+02:00</time>
      </trkpt>
      <trkpt lat="43.52075" lon="5.66683">
        <ele>314</ele>
        <time>2022-10-08T08:57:37+02:00</time>
      </trkpt>
      <trkpt lat="43.521" lon="5.66701">
        <ele>334</ele>
        <time>2022-10-08T08:57:55+02:00</time>
      </trkpt>
      <trkpt lat="43.52122" lon="5.66725">
        <ele>295</ele>
        <time>2022-10-08T08:58:11+02:00</time>
      </trkpt>
      <trkpt lat="43.52144" lon="5.66748">
        <ele>293</ele>
        <time>2022-10-08T08:58:24+02:00</time>
      </trkpt>
      <trkpt lat="43.52159" lon="5.6678">
        <ele>315</ele>
        <time>2022-10-08T08:58:53+02:00</time>
      </trkpt>
      <trkpt lat="43.52181" lon="5.66804">
        <ele>287</ele>
        <time>2022-10-08T08:59:16+02:00</time>
      </trkpt>
      <trkpt lat="43.52205" lon="5.66825">
        <ele>278</ele>
        <time>2022-10-08T08:59:42+02:00</time>
      </trkpt>
      <trkpt lat="43.52225" lon="5.66852">
        <ele>271</ele>
        <time>2022-10-08T09:00:09+02:00</time>
      </trkpt>
      <trkpt lat="43.52245" lon="5.66878">
        <ele>270</ele>
        <time>2022-10-08T09:00:30+02:00</time>
      </trkpt>
      <trkpt lat="43.52264" lon="5.66904">
        <ele>273</ele>
        <time>2022-10-08T09:01:18+02:00</time>
      </trkpt>
      <trkpt lat="43.52289" lon="5.66921">
        <ele>274</ele>
        <time>2022-10-08T09:01:34+02:00</time>
      </trkpt>
      <trkpt lat="43.52314" lon="5.66936">
        <ele>271</ele>
        <time>2022-10-08T09:01:47+02:00</time>
      </trkpt>
      <trkpt lat="43.52338" lon="5.66959">
        <ele>280</ele>
        <time>2022-10-08T09:02:01+02:00</time>
      </trkpt>
      <trkpt lat="43.52359" lon="5.66986">
        <ele>294</ele>
        <time>2022-10-08T09:02:18+02:00</time>
      </trkpt>
      <trkpt lat="43.52378" lon="5.67014">
        <ele>335</ele>
        <time>2022-10-08T09:02:39+02:00</time>
      </trkpt>
      <trkpt lat="43.52394" lon="5.67046">
        <ele>329</ele>
        <time>2022-10-08T09:03:10+02:00</time>
      </trkpt>
      <trkpt lat="43.52407" lon="5.67079">
        <ele>317</ele>
        <time>2022-10-08T09:03:48+02:00</time>
      </trkpt>
      <trkpt lat="43.52421" lon="5.67111">
        <ele>284</ele>
        <time>2022-10-08T09:04:18+02:00</time>
      </trkpt>
      <trkpt lat="43.52444" lon="5.67134">
        <ele>279</ele>
        <time>2022-10-08T09:04:37+02:00</time>
      </trkpt>
      <trkpt lat="43.52466" lon="5.67156">
        <ele>280</ele>
        <time>2022-10-08T09:04:51+02:00</time>
      </trkpt>
      <trkpt lat="43.52489" lon="5.67177">
        <ele>291</ele>
        <time>2022-10-08T09:05:17+02:00</time>
      </trkpt>
      <trkpt lat="43.52512" lon="5.67199">
        <ele>298</ele>
        <time>2022-10-08T09:05:41+02:00</time>
      </trkpt>
      <trkpt lat="43.52535" lon="5.6722">
        <ele>300</ele>
        <time>2022-10-08T09:05:58+02:00</time>
      </trkpt>
      <trkpt lat="43.52552" lon="5.67249">
        <ele>303</ele>
        <time>2022-10-08T09:06:17+02:00</time>
      </trkpt>
      <trkpt lat="43.52565" lon="5.67282">
        <ele>346</ele>
        <time>2022-10-08T09:06:41+02:00</time>
      </trkpt>
      <trkpt lat="43.5258" lon="5.67315">
        <ele>348</ele>
        <time>2022-10-08T09:07:01+02:00</time>
      </trkpt>
      <trkpt lat="43.52582" lon="5.67352">
        <ele>348</ele>
        <time>2022-10-08T09:07:26+02:00</time>
      </trkpt>
      <trkpt lat="43.52586" lon="5.6739">
        <ele>348</ele>
        <time>2022-10-08T09:07:51+02:00</time>
      </trkpt>
      <trkpt lat="43.52591" lon="5.67428">
        <ele>353</ele>
        <time>2022-10-08T09:08:07+02:00</time>
      </trkpt>
      <trkpt lat="43.52573" lon="5.67457">
        <ele>353</ele>
        <time>2022-10-08T09:08:42+02:00</time>
      </trkpt>
      <trkpt lat="43.52569" lon="5.67493">
        <ele>355</ele>
        <time>2022-10-08T09:09:24+02:00</time>
      </trkpt>
      <trkpt lat="43.52594" lon="5.67509">
        <ele>360</ele>
        <time>2022-10-08T09:13:09+02:00</time>
      </trkpt>
      <trkpt lat="43.52616" lon="5.67484">
        <ele>362</ele>
        <time>2022-10-08T09:13:35+02:00</time>
      </trkpt>
      <trkpt lat="43.52624" lon="5.67449">
        <ele>361</ele>
        <time>2022-10-08T09:14:05+02:00</time>
      </trkpt>
      <trkpt lat="43.52644" lon="5.67424">
        <ele>362</ele>
        <time>2022-10-08T09:14:25+02:00</time>
      </trkpt>
      <trkpt lat="43.52671" lon="5.67413">
        <ele>363</ele>
        <time>2022-10-08T09:15:03+02:00</time>
      </trkpt>
      <trkpt lat="43.52696" lon="5.67429">
        <ele>367</ele>
        <time>2022-10-08T09:15:27+02:00</time>
      </trkpt>
      <trkpt lat="43.52719" lon="5.6745">
        <ele>369</ele>
        <time>2022-10-08T09:15:56+02:00</time>
      </trkpt>
      <trkpt lat="43.52746" lon="5.67442">
        <ele>372</ele>
        <time>2022-10-08T09:16:29+02:00</time>
      </trkpt>
      <trkpt lat="43.52773" lon="5.67445">
        <ele>375</ele>
        <time>2022-10-08T09:17:11+02:00</time>
      </trkpt>
      <trkpt lat="43.528" lon="5.67454">
        <ele>380</ele>
        <time>2022-10-08T09:18:17+02:00</time>
      </trkpt>
      <trkpt lat="43.52815" lon="5.67485">
        <ele>383</ele>
        <time>2022-10-08T09:18:41+02:00</time>
      </trkpt>
      <trkpt lat="43.52834" lon="5.67511">
        <ele>385</ele>
        <time>2022-10-08T09:19:35+02:00</time>
      </trkpt>
      <trkpt lat="43.52852" lon="5.6754">
        <ele>393</ele>
        <time>2022-10-08T09:20:44+02:00</time>
      </trkpt>
      <trkpt lat="43.52863" lon="5.67505">
        <ele>397</ele>
        <time>2022-10-08T09:22:30+02:00</time>
      </trkpt>
      <trkpt lat="43.52888" lon="5.67492">
        <ele>411</ele>
        <time>2022-10-08T09:25:00+02:00</time>
      </trkpt>
      <trkpt lat="43.52896" lon="5.67456">
        <ele>415</ele>
        <time>2022-10-08T09:26:40+02:00</time>
      </trkpt>
      <trkpt lat="43.52881" lon="5.67487">
        <ele>408</ele>
        <time>2022-10-08T09:28:04+02:00</time>
      </trkpt>
      <trkpt lat="43.52862" lon="5.67514">
        <ele>397</ele>
        <time>2022-10-08T09:29:34+02:00</time>
      </trkpt>
      <trkpt lat="43.52846" lon="5.67545">
        <ele>391</ele>
        <time>2022-10-08T09:30:55+02:00</time>
      </trkpt>
      <trkpt lat="43.52871" lon="5.67561">
        <ele>402</ele>
        <time>2022-10-08T09:33:31+02:00</time>
      </trkpt>
      <trkpt lat="43.52899" lon="5.67556">
        <ele>414</ele>
        <time>2022-10-08T09:35:20+02:00</time>
      </trkpt>
      <trkpt lat="43.52921" lon="5.67535">
        <ele>425</ele>
        <time>2022-10-08T09:36:45+02:00</time>
      </trkpt>
      <trkpt lat="43.52943" lon="5.67557">
        <ele>426</ele>
        <time>2022-10-08T09:37:34+02:00</time>
      </trkpt>
      <trkpt lat="43.52957" lon="5.67589">
        <ele>433</ele>
        <time>2022-10-08T09:38:43+02:00</time>
      </trkpt>
      <trkpt lat="43.52965" lon="5.67624">
        <ele>441</ele>
        <time>2022-10-08T09:39:25+02:00</time>
      </trkpt>
      <trkpt lat="43.52992" lon="5.67629">
        <ele>448</ele>
        <time>2022-10-08T09:41:18+02:00</time>
      </trkpt>
      <trkpt lat="43.53019" lon="5.67619">
        <ele>456</ele>
        <time>2022-10-08T09:42:31+02:00</time>
      </trkpt>
      <trkpt lat="43.53046" lon="5.67612">
        <ele>465</ele>
        <time>2022-10-08T09:43:28+02:00</time>
      </trkpt>
      <trkpt lat="43.53073" lon="5.67603">
        <ele>470</ele>
        <time>2022-10-08T09:44:06+02:00</time>
      </trkpt>
      <trkpt lat="43.531" lon="5.6761">
        <ele>479</ele>
        <time>2022-10-08T09:45:08+02:00</time>
      </trkpt>
      <trkpt lat="43.53127" lon="5.676">
        <ele>486</ele>
        <time>2022-10-08T09:45:51+02:00</time>
      </trkpt>
      <trkpt lat="43.53153" lon="5.67607">
        <ele>497</ele>
        <time>2022-10-08T09:46:52+02:00</time>
      </trkpt>
      <trkpt lat="43.53181" lon="5.6761">
        <ele>508</ele>
        <time>2022-10-08T09:47:50+02:00</time>
      </trkpt>
      <trkpt lat="43.53207" lon="5.67621">
        <ele>517</ele>
        <time>2022-10-08T09:49:11+02:00</time>
      </trkpt>
      <trkpt lat="43.53231" lon="5.67639">
        <ele>528</ele>
        <time>2022-10-08T09:50:09+02:00</time>
      </trkpt>
      <trkpt lat="43.53256" lon="5.67653">
        <ele>540</ele>
        <time>2022-10-08T09:51:27+02:00</time>
      </trkpt>
      <trkpt lat="43.53284" lon="5.67655">
        <ele>552</ele>
        <time>2022-10-08T09:52:12+02:00</time>
      </trkpt>
      <trkpt lat="43.53311" lon="5.67651">
        <ele>562</ele>
        <time>2022-10-08T09:53:47+02:00</time>
      </trkpt>
      <trkpt lat="43.53339" lon="5.67652">
        <ele>574</ele>
        <time>2022-10-08T09:54:55+02:00</time>
      </trkpt>
      <trkpt lat="43.53365" lon="5.67661">
        <ele>585</ele>
        <time>2022-10-08T09:55:53+02:00</time>
      </trkpt>
      <trkpt lat="43.53393" lon="5.67659">
        <ele>597</ele>
        <time>2022-10-08T09:57:16+02:00</time>
      </trkpt>
      <trkpt lat="43.53421" lon="5.67663">
        <ele>609</ele>
        <time>2022-10-08T09:58:05+02:00</time>
      </trkpt>
      <trkpt lat="43.53448" lon="5.67667">
        <ele>622</ele>
        <time>2022-10-08T09:59:35+02:00</time>
      </trkpt>
      <trkpt lat="43.53474" lon="5.67677">
        <ele>632</ele>
        <time>2022-10-08T10:00:48+02:00</time>
      </trkpt>
      <trkpt lat="43.53501" lon="5.67675">
        <ele>641</ele>
        <time>2022-10-08T10:02:07+02:00</time>
      </trkpt>
      <trkpt lat="43.53527" lon="5.67689">
        <ele>655</ele>
        <time>2022-10-08T10:02:51+02:00</time>
      </trkpt>
      <trkpt lat="43.53551" lon="5.6767">
        <ele>656</ele>
        <time>2022-10-08T10:03:24+02:00</time>
      </trkpt>
      <trkpt lat="43.53577" lon="5.67658">
        <ele>658</ele>
        <time>2022-10-08T10:03:57+02:00</time>
      </trkpt>
      <trkpt lat="43.53598" lon="5.67632">
        <ele>657</ele>
        <time>2022-10-08T10:04:31+02:00</time>
      </trkpt>
      <trkpt lat="43.53615" lon="5.67603">
        <ele>657</ele>
        <time>2022-10-08T10:04:57+02:00</time>
      </trkpt>
      <trkpt lat="43.5363" lon="5.67572">
        <ele>659</ele>
        <time>2022-10-08T10:05:28+02:00</time>
      </trkpt>
      <trkpt lat="43.53636" lon="5.67535">
        <ele>664</ele>
        <time>2022-10-08T10:05:55+02:00</time>
      </trkpt>
      <trkpt lat="43.53637" lon="5.67496">
        <ele>668</ele>
        <time>2022-10-08T10:06:35+02:00</time>
      </trkpt>
      <trkpt lat="43.53648" lon="5.67462">
        <ele>675</ele>
        <time>2022-10-08T10:07:21+02:00</time>
      </trkpt>
      <trkpt lat="43.53653" lon="5.67425">
        <ele>682</ele>
        <time>2022-10-08T10:08:38+02:00</time>
      </trkpt>
      <trkpt lat="43.53665" lon="5.67391">
        <ele>691</ele>
        <time>2022-10-08T10:09:22+02:00</time>
      </trkpt>
      <trkpt lat="43.53684" lon="5.67364">
        <ele>696</ele>
        <time>2022-10-08T10:10:03+02:00</time>
      </trkpt>
      <trkpt lat="43.53697" lon="5.6733">
        <ele>702</ele>
        <time>2022-10-08T10:10:46+02:00</time>
      </trkpt>
      <trkpt lat="43.53716" lon="5.67303">
        <ele>708</ele>
        <time>2022-10-08T10:11:26+02:00</time>
      </trkpt>
      <trkpt lat="43.5374" lon="5.67283">
        <ele>714</ele>
        <time>2022-10-08T10:11:54+02:00</time>
      </trkpt>
      <trkpt lat="43.53761" lon="5.67258">
        <ele>721</ele>
        <time>2022-10-08T10:12:45+02:00</time>
      </trkpt>
      <trkpt lat="43.53775" lon="5.67226">
        <ele>727</ele>
        <time>2022-10-08T10:13:27+02:00</time>
      </trkpt>
      <trkpt lat="43.53795" lon="5.672">
        <ele>734</ele>
        <time>2022-10-08T10:14:07+02:00</time>
      </trkpt>
      <trkpt lat="43.53816" lon="5.67174">
        <ele>741</ele>
        <time>2022-10-08T10:14:52+02:00</time>
      </trkpt>
      <trkpt lat="43.53825" lon="5.67139">
        <ele>747</ele>
        <time>2022-10-08T10:16:00+02:00</time>
      </trkpt>
      <trkpt lat="43.53846" lon="5.67115">
        <ele>755</ele>
        <time>2022-10-08T10:16:37+02:00</time>
      </trkpt>
      <trkpt lat="43.53867" lon="5.67091">
        <ele>760</ele>
        <time>2022-10-08T10:17:11+02:00</time>
      </trkpt>
      <trkpt lat="43.53885" lon="5.67063">
        <ele>766</ele>
        <time>2022-10-08T10:17:50+02:00</time>
      </trkpt>
      <trkpt lat="43.53896" lon="5.67027">
        <ele>771</ele>
        <time>2022-10-08T10:18:23+02:00</time>
      </trkpt>
      <trkpt lat="43.53913" lon="5.66998">
        <ele>776</ele>
        <time>2022-10-08T10:18:57+02:00</time>
      </trkpt>
      <trkpt lat="43.53925" lon="5.66964">
        <ele>781</ele>
        <time>2022-10-08T10:19:43+02:00</time>
      </trkpt>
      <trkpt lat="43.53925" lon="5.66926">
        <ele>785</ele>
        <time>2022-10-08T10:20:20+02:00</time>
      </trkpt>
      <trkpt lat="43.5394" lon="5.66895">
        <ele>791</ele>
        <time>2022-10-08T10:21:02+02:00</time>
      </trkpt>
      <trkpt lat="43.53925" lon="5.66864">
        <ele>792</ele>
        <time>2022-10-08T10:21:37+02:00</time>
      </trkpt>
      <trkpt lat="43.5392" lon="5.66827">
        <ele>795</ele>
        <time>2022-10-08T10:22:21+02:00</time>
      </trkpt>
      <trkpt lat="43.5392" lon="5.6679">
        <ele>799</ele>
        <time>2022-10-08T10:22:52+02:00</time>
      </trkpt>
      <trkpt lat="43.5391" lon="5.66754">
        <ele>803</ele>
        <time>2022-10-08T10:23:24+02:00</time>
      </trkpt>
      <trkpt lat="43.53897" lon="5.66721">
        <ele>806</ele>
        <time>2022-10-08T10:23:41+02:00</time>
      </trkpt>
      <trkpt lat="43.53893" lon="5.66685">
        <ele>810</ele>
        <time>2022-10-08T10:24:14+02:00</time>
      </trkpt>
      <trkpt lat="43.53882" lon="5.6665">
        <ele>814</ele>
        <time>2022-10-08T10:25:01+02:00</time>
      </trkpt>
      <trkpt lat="43.53875" lon="5.66614">
        <ele>817</ele>
        <time>2022-10-08T10:25:38+02:00</time>
      </trkpt>
      <trkpt lat="43.53868" lon="5.66577">
        <ele>820</ele>
        <time>2022-10-08T10:26:16+02:00</time>
      </trkpt>
      <trkpt lat="43.53876" lon="5.6654">
        <ele>825</ele>
        <time>2022-10-08T10:27:11+02:00</time>
      </trkpt>
      <trkpt lat="43.53869" lon="5.66502">
        <ele>829</ele>
        <time>2022-10-08T10:27:44+02:00</time>
      </trkpt>
      <trkpt lat="43.53866" lon="5.66464">
        <ele>835</ele>
        <time>2022-10-08T10:28:08+02:00</time>
      </trkpt>
      <trkpt lat="43.53867" lon="5.66426">
        <ele>841</ele>
        <time>2022-10-08T10:28:48+02:00</time>
      </trkpt>
      <trkpt lat="43.53864" lon="5.66386">
        <ele>845</ele>
        <time>2022-10-08T10:29:19+02:00</time>
      </trkpt>
      <trkpt lat="43.53866" lon="5.66348">
        <ele>849</ele>
        <time>2022-10-08T10:29:51+02:00</time>
      </trkpt>
      <trkpt lat="43.53869" lon="5.66311">
        <ele>852</ele>
        <time>2022-10-08T10:30:27+02:00</time>
      </trkpt>
      <trkpt lat="43.53875" lon="5.66274">
        <ele>857</ele>
        <time>2022-10-08T10:31:01+02:00</time>
      </trkpt>
      <trkpt lat="43.5388" lon="5.66238">
        <ele>861</ele>
        <time>2022-10-08T10:31:44+02:00</time>
      </trkpt>
      <trkpt lat="43.53897" lon="5.66207">
        <ele>863</ele>
        <time>2022-10-08T10:32:22+02:00</time>
      </trkpt>
      <trkpt lat="43.53902" lon="5.6617">
        <ele>866</ele>
        <time>2022-10-08T10:32:45+02:00</time>
      </trkpt>
      <trkpt lat="43.53897" lon="5.66134">
        <ele>866</ele>
        <time>2022-10-08T10:33:09+02:00</time>
      </trkpt>
      <trkpt lat="43.53895" lon="5.66096">
        <ele>865</ele>
        <time>2022-10-08T10:33:40+02:00</time>
      </trkpt>
      <trkpt lat="43.53904" lon="5.6606">
        <ele>864</ele>
        <time>2022-10-08T10:34:10+02:00</time>
      </trkpt>
      <trkpt lat="43.53914" lon="5.66025">
        <ele>863</ele>
        <time>2022-10-08T10:34:35+02:00</time>
      </trkpt>
      <trkpt lat="43.53922" lon="5.65989">
        <ele>863</ele>
        <time>2022-10-08T10:34:58+02:00</time>
      </trkpt>
      <trkpt lat="43.53924" lon="5.65949">
        <ele>860</ele>
        <time>2022-10-08T10:35:23+02:00</time>
      </trkpt>
      <trkpt lat="43.53938" lon="5.65916">
        <ele>863</ele>
        <time>2022-10-08T10:35:49+02:00</time>
      </trkpt>
      <trkpt lat="43.53947" lon="5.65881">
        <ele>867</ele>
        <time>2022-10-08T10:36:30+02:00</time>
      </trkpt>
      <trkpt lat="43.5394" lon="5.65844">
        <ele>871</ele>
        <time>2022-10-08T10:36:45+02:00</time>
      </trkpt>
      <trkpt lat="43.53941" lon="5.65806">
        <ele>875</ele>
        <time>2022-10-08T10:37:20+02:00</time>
      </trkpt>
      <trkpt lat="43.53938" lon="5.65768">
        <ele>882</ele>
        <time>2022-10-08T10:37:53+02:00</time>
      </trkpt>
      <trkpt lat="43.5394" lon="5.65731">
        <ele>889</ele>
        <time>2022-10-08T10:38:47+02:00</time>
      </trkpt>
      <trkpt lat="43.53943" lon="5.65694">
        <ele>896</ele>
        <time>2022-10-08T10:39:27+02:00</time>
      </trkpt>
      <trkpt lat="43.53946" lon="5.65656">
        <ele>900</ele>
        <time>2022-10-08T10:40:08+02:00</time>
      </trkpt>
      <trkpt lat="43.53951" lon="5.65619">
        <ele>905</ele>
        <time>2022-10-08T10:40:51+02:00</time>
      </trkpt>
      <trkpt lat="43.53944" lon="5.65583">
        <ele>915</ele>
        <time>2022-10-08T10:41:41+02:00</time>
      </trkpt>
      <trkpt lat="43.53936" lon="5.65547">
        <ele>916</ele>
        <time>2022-10-08T10:42:35+02:00</time>
      </trkpt>
      <trkpt lat="43.53947" lon="5.65513">
        <ele>922</ele>
        <time>2022-10-08T10:43:20+02:00</time>
      </trkpt>
      <trkpt lat="43.5394" lon="5.65476">
        <ele>926</ele>
        <time>2022-10-08T10:44:18+02:00</time>
      </trkpt>
      <trkpt lat="43.53944" lon="5.65438">
        <ele>934</ele>
        <time>2022-10-08T10:45:15+02:00</time>
      </trkpt>
      <trkpt lat="43.53954" lon="5.65403">
        <ele>938</ele>
        <time>2022-10-08T10:45:53+02:00</time>
      </trkpt>
      <trkpt lat="43.53948" lon="5.65366">
        <ele>945</ele>
        <time>2022-10-08T10:46:56+02:00</time>
      </trkpt>
      <trkpt lat="43.5395" lon="5.65328">
        <ele>949</ele>
        <time>2022-10-08T10:47:29+02:00</time>
      </trkpt>
      <trkpt lat="43.53947" lon="5.65291">
        <ele>950</ele>
        <time>2022-10-08T10:47:50+02:00</time>
      </trkpt>
      <trkpt lat="43.53937" lon="5.65256">
        <ele>951</ele>
        <time>2022-10-08T10:48:17+02:00</time>
      </trkpt>
      <trkpt lat="43.53932" lon="5.65218">
        <ele>956</ele>
        <time>2022-10-08T10:49:07+02:00</time>
      </trkpt>
      <trkpt lat="43.53933" lon="5.65181">
        <ele>961</ele>
        <time>2022-10-08T10:49:42+02:00</time>
      </trkpt>
      <trkpt lat="43.53934" lon="5.65143">
        <ele>964</ele>
        <time>2022-10-08T10:50:05+02:00</time>
      </trkpt>
      <trkpt lat="43.53939" lon="5.65106">
        <ele>965</ele>
        <time>2022-10-08T10:50:32+02:00</time>
      </trkpt>
      <trkpt lat="43.53937" lon="5.65069">
        <ele>962</ele>
        <time>2022-10-08T10:51:06+02:00</time>
      </trkpt>
      <trkpt lat="43.53947" lon="5.65034">
        <ele>965</ele>
        <time>2022-10-08T10:51:58+02:00</time>
      </trkpt>
      <trkpt lat="43.53953" lon="5.64997">
        <ele>966</ele>
        <time>2022-10-08T10:52:25+02:00</time>
      </trkpt>
      <trkpt lat="43.53952" lon="5.64959">
        <ele>970</ele>
        <time>2022-10-08T10:53:57+02:00</time>
      </trkpt>
      <trkpt lat="43.53943" lon="5.64924">
        <ele>973</ele>
        <time>2022-10-08T10:54:29+02:00</time>
      </trkpt>
      <trkpt lat="43.53947" lon="5.64885">
        <ele>972</ele>
        <time>2022-10-08T10:54:53+02:00</time>
      </trkpt>
      <trkpt lat="43.53944" lon="5.64849">
        <ele>973</ele>
        <time>2022-10-08T10:55:16+02:00</time>
      </trkpt>
      <trkpt lat="43.53951" lon="5.64813">
        <ele>979</ele>
        <time>2022-10-08T10:55:45+02:00</time>
      </trkpt>
      <trkpt lat="43.5395" lon="5.64774">
        <ele>984</ele>
        <time>2022-10-08T10:56:15+02:00</time>
      </trkpt>
      <trkpt lat="43.53937" lon="5.64741">
        <ele>988</ele>
        <time>2022-10-08T10:56:48+02:00</time>
      </trkpt>
      <trkpt lat="43.53931" lon="5.64704">
        <ele>990</ele>
        <time>2022-10-08T10:57:14+02:00</time>
      </trkpt>
      <trkpt lat="43.53923" lon="5.64669">
        <ele>992</ele>
        <time>2022-10-08T10:57:39+02:00</time>
      </trkpt>
      <trkpt lat="43.53919" lon="5.64631">
        <ele>998</ele>
        <time>2022-10-08T10:58:25+02:00</time>
      </trkpt>
      <trkpt lat="43.53915" lon="5.64594">
        <ele>998</ele>
        <time>2022-10-08T10:59:08+02:00</time>
      </trkpt>
      <trkpt lat="43.53906" lon="5.64558">
        <ele>997</ele>
        <time>2022-10-08T10:59:48+02:00</time>
      </trkpt>
      <trkpt lat="43.53892" lon="5.64525">
        <ele>990</ele>
        <time>2022-10-08T11:05:52+02:00</time>
      </trkpt>
      <trkpt lat="43.5392" lon="5.6453">
        <ele>998</ele>
        <time>2022-10-08T11:06:28+02:00</time>
      </trkpt>
      <trkpt lat="43.53935" lon="5.64561">
        <ele>1000</ele>
        <time>2022-10-08T11:06:58+02:00</time>
      </trkpt>
      <trkpt lat="43.53914" lon="5.64587">
        <ele>998</ele>
        <time>2022-10-08T11:11:44+02:00</time>
      </trkpt>
      <trkpt lat="43.5391" lon="5.64551">
        <ele>998</ele>
        <time>2022-10-08T11:13:24+02:00</time>
      </trkpt>
      <trkpt lat="43.53898" lon="5.64515">
        <ele>991</ele>
        <time>2022-10-08T11:14:57+02:00</time>
      </trkpt>
      <trkpt lat="43.53909" lon="5.6448">
        <ele>991</ele>
        <time>2022-10-08T11:15:42+02:00</time>
      </trkpt>
      <trkpt lat="43.53917" lon="5.64444">
        <ele>990</ele>
        <time>2022-10-08T11:16:10+02:00</time>
      </trkpt>
      <trkpt lat="43.53924" lon="5.64408">
        <ele>983</ele>
        <time>2022-10-08T11:16:32+02:00</time>
      </trkpt>
      <trkpt lat="43.5391" lon="5.64376">
        <ele>973</ele>
        <time>2022-10-08T11:17:11+02:00</time>
      </trkpt>
      <trkpt lat="43.539" lon="5.64342">
        <ele>965</ele>
        <time>2022-10-08T11:18:13+02:00</time>
      </trkpt>
      <trkpt lat="43.53891" lon="5.64307">
        <ele>962</ele>
        <time>2022-10-08T11:18:48+02:00</time>
      </trkpt>
      <trkpt lat="43.53885" lon="5.6427">
        <ele>955</ele>
        <time>2022-10-08T11:19:35+02:00</time>
      </trkpt>
      <trkpt lat="43.53866" lon="5.64244">
        <ele>951</ele>
        <time>2022-10-08T11:20:16+02:00</time>
      </trkpt>
      <trkpt lat="43.53843" lon="5.64223">
        <ele>947</ele>
        <time>2022-10-08T11:20:44+02:00</time>
      </trkpt>
      <trkpt lat="43.53822" lon="5.64198">
        <ele>953</ele>
        <time>2022-10-08T11:21:20+02:00</time>
      </trkpt>
      <trkpt lat="43.5381" lon="5.64164">
        <ele>929</ele>
        <time>2022-10-08T11:22:27+02:00</time>
      </trkpt>
      <trkpt lat="43.53798" lon="5.6413">
        <ele>927</ele>
        <time>2022-10-08T11:22:59+02:00</time>
      </trkpt>
      <trkpt lat="43.53809" lon="5.64095">
        <ele>934</ele>
        <time>2022-10-08T11:24:12+02:00</time>
      </trkpt>
      <trkpt lat="43.53818" lon="5.64059">
        <ele>931</ele>
        <time>2022-10-08T11:24:59+02:00</time>
      </trkpt>
      <trkpt lat="43.53805" lon="5.64026">
        <ele>932</ele>
        <time>2022-10-08T11:25:33+02:00</time>
      </trkpt>
      <trkpt lat="43.53784" lon="5.64001">
        <ele>922</ele>
        <time>2022-10-08T11:26:08+02:00</time>
      </trkpt>
      <trkpt lat="43.53776" lon="5.63964">
        <ele>944</ele>
        <time>2022-10-08T11:30:18+02:00</time>
      </trkpt>
      <trkpt lat="43.53759" lon="5.63933">
        <ele>932</ele>
        <time>2022-10-08T11:32:29+02:00</time>
      </trkpt>
      <trkpt lat="43.53766" lon="5.63896">
        <ele>926</ele>
        <time>2022-10-08T11:34:43+02:00</time>
      </trkpt>
      <trkpt lat="43.53753" lon="5.63863">
        <ele>916</ele>
        <time>2022-10-08T11:35:51+02:00</time>
      </trkpt>
      <trkpt lat="43.53746" lon="5.63826">
        <ele>909</ele>
        <time>2022-10-08T11:37:26+02:00</time>
      </trkpt>
      <trkpt lat="43.53734" lon="5.63792">
        <ele>909</ele>
        <time>2022-10-08T11:38:05+02:00</time>
      </trkpt>
      <trkpt lat="43.53731" lon="5.63754">
        <ele>914</ele>
        <time>2022-10-08T11:39:22+02:00</time>
      </trkpt>
      <trkpt lat="43.53727" lon="5.63717">
        <ele>920</ele>
        <time>2022-10-08T11:40:00+02:00</time>
      </trkpt>
      <trkpt lat="43.53717" lon="5.63682">
        <ele>927</ele>
        <time>2022-10-08T11:40:35+02:00</time>
      </trkpt>
      <trkpt lat="43.53711" lon="5.63646">
        <ele>928</ele>
        <time>2022-10-08T11:41:17+02:00</time>
      </trkpt>
      <trkpt lat="43.53711" lon="5.63607">
        <ele>926</ele>
        <time>2022-10-08T11:41:53+02:00</time>
      </trkpt>
      <trkpt lat="43.5371" lon="5.6357">
        <ele>925</ele>
        <time>2022-10-08T11:42:25+02:00</time>
      </trkpt>
      <trkpt lat="43.53712" lon="5.63531">
        <ele>924</ele>
        <time>2022-10-08T11:43:03+02:00</time>
      </trkpt>
      <trkpt lat="43.5371" lon="5.63493">
        <ele>924</ele>
        <time>2022-10-08T11:43:43+02:00</time>
      </trkpt>
      <trkpt lat="43.53707" lon="5.63455">
        <ele>922</ele>
        <time>2022-10-08T11:44:32+02:00</time>
      </trkpt>
      <trkpt lat="43.53705" lon="5.63418">
        <ele>915</ele>
        <time>2022-10-08T11:45:13+02:00</time>
      </trkpt>
      <trkpt lat="43.53713" lon="5.63381">
        <ele>908</ele>
        <time>2022-10-08T11:46:08+02:00</time>
      </trkpt>
      <trkpt lat="43.53718" lon="5.63344">
        <ele>905</ele>
        <time>2022-10-08T11:46:32+02:00</time>
      </trkpt>
      <trkpt lat="43.53718" lon="5.63307">
        <ele>904</ele>
        <time>2022-10-08T11:47:18+02:00</time>
      </trkpt>
      <trkpt lat="43.53714" lon="5.63269">
        <ele>907</ele>
        <time>2022-10-08T11:47:58+02:00</time>
      </trkpt>
      <trkpt lat="43.53709" lon="5.63232">
        <ele>913</ele>
        <time>2022-10-08T11:49:10+02:00</time>
      </trkpt>
      <trkpt lat="43.53703" lon="5.63195">
        <ele>919</ele>
        <time>2022-10-08T11:49:53+02:00</time>
      </trkpt>
      <trkpt lat="43.537" lon="5.63157">
        <ele>929</ele>
        <time>2022-10-08T11:50:51+02:00</time>
      </trkpt>
      <trkpt lat="43.5369" lon="5.63123">
        <ele>938</ele>
        <time>2022-10-08T11:51:26+02:00</time>
      </trkpt>
      <trkpt lat="43.53677" lon="5.6309">
        <ele>945</ele>
        <time>2022-10-08T11:52:40+02:00</time>
      </trkpt>
      <trkpt lat="43.53671" lon="5.63052">
        <ele>952</ele>
        <time>2022-10-08T11:53:17+02:00</time>
      </trkpt>
      <trkpt lat="43.53667" lon="5.63015">
        <ele>958</ele>
        <time>2022-10-08T11:54:01+02:00</time>
      </trkpt>
      <trkpt lat="43.53663" lon="5.62978">
        <ele>959</ele>
        <time>2022-10-08T11:55:20+02:00</time>
      </trkpt>
      <trkpt lat="43.53658" lon="5.6294">
        <ele>955</ele>
        <time>2022-10-08T11:56:02+02:00</time>
      </trkpt>
      <trkpt lat="43.53654" lon="5.62903">
        <ele>947</ele>
        <time>2022-10-08T11:58:32+02:00</time>
      </trkpt>
      <trkpt lat="43.53661" lon="5.62866">
        <ele>939</ele>
        <time>2022-10-08T12:00:33+02:00</time>
      </trkpt>
      <trkpt lat="43.53657" lon="5.62828">
        <ele>929</ele>
        <time>2022-10-08T12:01:03+02:00</time>
      </trkpt>
      <trkpt lat="43.5366" lon="5.62791">
        <ele>924</ele>
        <time>2022-10-08T12:02:04+02:00</time>
      </trkpt>
      <trkpt lat="43.53668" lon="5.62754">
        <ele>919</ele>
        <time>2022-10-08T12:02:59+02:00</time>
      </trkpt>
      <trkpt lat="43.53665" lon="5.62717">
        <ele>914</ele>
        <time>2022-10-08T12:03:34+02:00</time>
      </trkpt>
      <trkpt lat="43.53653" lon="5.62684">
        <ele>915</ele>
        <time>2022-10-08T12:04:03+02:00</time>
      </trkpt>
      <trkpt lat="43.53647" lon="5.62647">
        <ele>925</ele>
        <time>2022-10-08T12:05:34+02:00</time>
      </trkpt>
      <trkpt lat="43.5364" lon="5.6261">
        <ele>938</ele>
        <time>2022-10-08T12:06:13+02:00</time>
      </trkpt>
      <trkpt lat="43.53631" lon="5.62575">
        <ele>940</ele>
        <time>2022-10-08T12:06:54+02:00</time>
      </trkpt>
      <trkpt lat="43.53618" lon="5.62541">
        <ele>942</ele>
        <time>2022-10-08T12:07:41+02:00</time>
      </trkpt>
      <trkpt lat="43.53617" lon="5.62504">
        <ele>940</ele>
        <time>2022-10-08T12:08:20+02:00</time>
      </trkpt>
      <trkpt lat="43.53613" lon="5.62467">
        <ele>936</ele>
        <time>2022-10-08T12:08:57+02:00</time>
      </trkpt>
      <trkpt lat="43.53592" lon="5.62443">
        <ele>936</ele>
        <time>2022-10-08T12:09:33+02:00</time>
      </trkpt>
      <trkpt lat="43.53579" lon="5.62409">
        <ele>935</ele>
        <time>2022-10-08T12:09:56+02:00</time>
      </trkpt>
      <trkpt lat="43.53571" lon="5.62373">
        <ele>933</ele>
        <time>2022-10-08T12:10:17+02:00</time>
      </trkpt>
      <trkpt lat="43.53565" lon="5.62335">
        <ele>932</ele>
        <time>2022-10-08T12:11:01+02:00</time>
      </trkpt>
      <trkpt lat="43.53561" lon="5.62298">
        <ele>932</ele>
        <time>2022-10-08T12:11:47+02:00</time>
      </trkpt>
      <trkpt lat="43.53559" lon="5.62261">
        <ele>943</ele>
        <time>2022-10-08T12:12:22+02:00</time>
      </trkpt>
      <trkpt lat="43.53538" lon="5.62236">
        <ele>946</ele>
        <time>2022-10-08T12:14:35+02:00</time>
      </trkpt>
      <trkpt lat="43.53531" lon="5.622">
        <ele>954</ele>
        <time>2022-10-08T12:15:19+02:00</time>
      </trkpt>
      <trkpt lat="43.53505" lon="5.6219">
        <ele>949</ele>
        <time>2022-10-08T12:16:23+02:00</time>
      </trkpt>
      <trkpt lat="43.53487" lon="5.6216">
        <ele>952</ele>
        <time>2022-10-08T12:18:40+02:00</time>
      </trkpt>
      <trkpt lat="43.53469" lon="5.62131">
        <ele>961</ele>
        <time>2022-10-08T12:19:34+02:00</time>
      </trkpt>
      <trkpt lat="43.53449" lon="5.62105">
        <ele>966</ele>
        <time>2022-10-08T12:20:03+02:00</time>
      </trkpt>
      <trkpt lat="43.53431" lon="5.62077">
        <ele>972</ele>
        <time>2022-10-08T12:20:30+02:00</time>
      </trkpt>
      <trkpt lat="43.53411" lon="5.62052">
        <ele>976</ele>
        <time>2022-10-08T12:20:57+02:00</time>
      </trkpt>
      <trkpt lat="43.534" lon="5.62018">
        <ele>981</ele>
        <time>2022-10-08T12:21:24+02:00</time>
      </trkpt>
      <trkpt lat="43.53397" lon="5.61979">
        <ele>983</ele>
        <time>2022-10-08T12:21:49+02:00</time>
      </trkpt>
      <trkpt lat="43.53395" lon="5.61942">
        <ele>986</ele>
        <time>2022-10-08T12:22:21+02:00</time>
      </trkpt>
      <trkpt lat="43.53391" lon="5.61904">
        <ele>988</ele>
        <time>2022-10-08T12:22:45+02:00</time>
      </trkpt>
      <trkpt lat="43.53383" lon="5.61868">
        <ele>993</ele>
        <time>2022-10-08T12:23:12+02:00</time>
      </trkpt>
      <trkpt lat="43.5337" lon="5.61834">
        <ele>997</ele>
        <time>2022-10-08T12:24:12+02:00</time>
      </trkpt>
      <trkpt lat="43.53343" lon="5.61825">
        <ele>1000</ele>
        <time>2022-10-08T12:24:49+02:00</time>
      </trkpt>
      <trkpt lat="43.53316" lon="5.61827">
        <ele>1000</ele>
        <time>2022-10-08T12:25:17+02:00</time>
      </trkpt>
      <trkpt lat="43.53288" lon="5.61827">
        <ele>1000</ele>
        <time>2022-10-08T12:25:46+02:00</time>
      </trkpt>
      <trkpt lat="43.53262" lon="5.61839">
        <ele>995</ele>
        <time>2022-10-08T12:26:23+02:00</time>
      </trkpt>
      <trkpt lat="43.53238" lon="5.61857">
        <ele>982</ele>
        <time>2022-10-08T12:26:51+02:00</time>
      </trkpt>
      <trkpt lat="43.53219" lon="5.6183">
        <ele>987</ele>
        <time>2022-10-08T12:27:21+02:00</time>
      </trkpt>
      <trkpt lat="43.53205" lon="5.61797">
        <ele>990</ele>
        <time>2022-10-08T12:28:03+02:00</time>
      </trkpt>
      <trkpt lat="43.53196" lon="5.61761">
        <ele>994</ele>
        <time>2022-10-08T12:28:32+02:00</time>
      </trkpt>
      <trkpt lat="43.53189" lon="5.61724">
        <ele>996</ele>
        <time>2022-10-08T12:29:10+02:00</time>
      </trkpt>
      <trkpt lat="43.53188" lon="5.61686">
        <ele>999</ele>
        <time>2022-10-08T12:29:49+02:00</time>
      </trkpt>
      <trkpt lat="43.53189" lon="5.61649">
        <ele>1003</ele>
        <time>2022-10-08T12:30:20+02:00</time>
      </trkpt>
      <trkpt lat="43.53184" lon="5.6161">
        <ele>999</ele>
        <time>2022-10-08T12:30:53+02:00</time>
      </trkpt>
      <trkpt lat="43.53182" lon="5.61573">
        <ele>998</ele>
        <time>2022-10-08T12:31:37+02:00</time>
      </trkpt>
      <trkpt lat="43.53187" lon="5.61536">
        <ele>999</ele>
        <time>2022-10-08T12:32:14+02:00</time>
      </trkpt>
      <trkpt lat="43.53181" lon="5.61498">
        <ele>1002</ele>
        <time>2022-10-08T12:32:40+02:00</time>
      </trkpt>
      <trkpt lat="43.53169" lon="5.61465">
        <ele>1003</ele>
        <time>2022-10-08T12:33:05+02:00</time>
      </trkpt>
      <trkpt lat="43.53157" lon="5.61429">
        <ele>1003</ele>
        <time>2022-10-08T12:33:34+02:00</time>
      </trkpt>
      <trkpt lat="43.53149" lon="5.61393">
        <ele>1001</ele>
        <time>2022-10-08T12:34:07+02:00</time>
      </trkpt>
      <trkpt lat="43.53139" lon="5.61357">
        <ele>996</ele>
        <time>2022-10-08T12:34:36+02:00</time>
      </trkpt>
      <trkpt lat="43.53133" lon="5.61319">
        <ele>995</ele>
        <time>2022-10-08T12:35:03+02:00</time>
      </trkpt>
      <trkpt lat="43.53128" lon="5.61283">
        <ele>995</ele>
        <time>2022-10-08T12:35:38+02:00</time>
      </trkpt>
      <trkpt lat="43.53125" lon="5.61244">
        <ele>998</ele>
        <time>2022-10-08T12:36:08+02:00</time>
      </trkpt>
      <trkpt lat="43.53135" lon="5.6121">
        <ele>1004</ele>
        <time>2022-10-08T12:36:42+02:00</time>
      </trkpt>
      <trkpt lat="43.53134" lon="5.61172">
        <ele>1007</ele>
        <time>2022-10-08T12:37:22+02:00</time>
      </trkpt>
      <trkpt lat="43.53141" lon="5.61136">
        <ele>1008</ele>
        <time>2022-10-08T12:37:56+02:00</time>
      </trkpt>
      <trkpt lat="43.53134" lon="5.611">
        <ele>1008</ele>
        <time>2022-10-08T12:38:27+02:00</time>
      </trkpt>
      <trkpt lat="43.53144" lon="5.61065">
        <ele>1008</ele>
        <time>2022-10-08T12:39:07+02:00</time>
      </trkpt>
      <trkpt lat="43.53148" lon="5.61027">
        <ele>1008</ele>
        <time>2022-10-08T12:39:34+02:00</time>
      </trkpt>
      <trkpt lat="43.53144" lon="5.60988">
        <ele>1007</ele>
        <time>2022-10-08T12:40:00+02:00</time>
      </trkpt>
      <trkpt lat="43.53143" lon="5.6095">
        <ele>1004</ele>
        <time>2022-10-08T12:40:27+02:00</time>
      </trkpt>
      <trkpt lat="43.53133" lon="5.60915">
        <ele>1000</ele>
        <time>2022-10-08T12:41:05+02:00</time>
      </trkpt>
      <trkpt lat="43.53122" lon="5.60881">
        <ele>1000</ele>
        <time>2022-10-08T12:41:40+02:00</time>
      </trkpt>
      <trkpt lat="43.53102" lon="5.60856">
        <ele>1001</ele>
        <time>2022-10-08T12:42:29+02:00</time>
      </trkpt>
      <trkpt lat="43.53082" lon="5.6083">
        <ele>1002</ele>
        <time>2022-10-08T12:42:57+02:00</time>
      </trkpt>
      <trkpt lat="43.53064" lon="5.60802">
        <ele>997</ele>
        <time>2022-10-08T12:43:35+02:00</time>
      </trkpt>
      <trkpt lat="43.53061" lon="5.60765">
        <ele>998</ele>
        <time>2022-10-08T12:44:06+02:00</time>
      </trkpt>
      <trkpt lat="43.53067" lon="5.60728">
        <ele>996</ele>
        <time>2022-10-08T12:44:44+02:00</time>
      </trkpt>
      <trkpt lat="43.53072" lon="5.6069">
        <ele>994</ele>
        <time>2022-10-08T12:45:13+02:00</time>
      </trkpt>
      <trkpt lat="43.53066" lon="5.60654">
        <ele>994</ele>
        <time>2022-10-08T12:45:38+02:00</time>
      </trkpt>
      <trkpt lat="43.53058" lon="5.60617">
        <ele>996</ele>
        <time>2022-10-08T12:46:03+02:00</time>
      </trkpt>
      <trkpt lat="43.53053" lon="5.6058">
        <ele>995</ele>
        <time>2022-10-08T12:46:33+02:00</time>
      </trkpt>
      <trkpt lat="43.53047" lon="5.60542">
        <ele>994</ele>
        <time>2022-10-08T12:47:02+02:00</time>
      </trkpt>
      <trkpt lat="43.5305" lon="5.60505">
        <ele>994</ele>
        <time>2022-10-08T12:47:31+02:00</time>
      </trkpt>
      <trkpt lat="43.53039" lon="5.60471">
        <ele>992</ele>
        <time>2022-10-08T12:47:56+02:00</time>
      </trkpt>
      <trkpt lat="43.53036" lon="5.60434">
        <ele>987</ele>
        <time>2022-10-08T12:48:46+02:00</time>
      </trkpt>
      <trkpt lat="43.53033" lon="5.60396">
        <ele>983</ele>
        <time>2022-10-08T12:49:16+02:00</time>
      </trkpt>
      <trkpt lat="43.53036" lon="5.60359">
        <ele>980</ele>
        <time>2022-10-08T12:49:53+02:00</time>
      </trkpt>
      <trkpt lat="43.5303" lon="5.60321">
        <ele>982</ele>
        <time>2022-10-08T12:50:21+02:00</time>
      </trkpt>
      <trkpt lat="43.53015" lon="5.60288">
        <ele>978</ele>
        <time>2022-10-08T12:50:45+02:00</time>
      </trkpt>
      <trkpt lat="43.53007" lon="5.60253">
        <ele>972</ele>
        <time>2022-10-08T12:51:10+02:00</time>
      </trkpt>
      <trkpt lat="43.53008" lon="5.60215">
        <ele>969</ele>
        <time>2022-10-08T12:52:12+02:00</time>
      </trkpt>
      <trkpt lat="43.53005" lon="5.60177">
        <ele>971</ele>
        <time>2022-10-08T12:54:28+02:00</time>
      </trkpt>
      <trkpt lat="43.52989" lon="5.60148">
        <ele>965</ele>
        <time>2022-10-08T13:11:23+02:00</time>
      </trkpt>
      <trkpt lat="43.52979" lon="5.60112">
        <ele>962</ele>
        <time>2022-10-08T13:12:04+02:00</time>
      </trkpt>
      <trkpt lat="43.52966" lon="5.60079">
        <ele>955</ele>
        <time>2022-10-08T13:12:35+02:00</time>
      </trkpt>
      <trkpt lat="43.5296" lon="5.60041">
        <ele>951</ele>
        <time>2022-10-08T13:13:01+02:00</time>
      </trkpt>
      <trkpt lat="43.52964" lon="5.60002">
        <ele>956</ele>
        <time>2022-10-08T13:13:40+02:00</time>
      </trkpt>
      <trkpt lat="43.52972" lon="5.59965">
        <ele>961</ele>
        <time>2022-10-08T13:14:11+02:00</time>
      </trkpt>
      <trkpt lat="43.52989" lon="5.59935">
        <ele>964</ele>
        <time>2022-10-08T13:14:48+02:00</time>
      </trkpt>
      <trkpt lat="43.53002" lon="5.59902">
        <ele>966</ele>
        <time>2022-10-08T13:15:31+02:00</time>
      </trkpt>
      <trkpt lat="43.5301" lon="5.59865">
        <ele>963</ele>
        <time>2022-10-08T13:16:12+02:00</time>
      </trkpt>
      <trkpt lat="43.53011" lon="5.59828">
        <ele>961</ele>
        <time>2022-10-08T13:16:46+02:00</time>
      </trkpt>
      <trkpt lat="43.53015" lon="5.59791">
        <ele>965</ele>
        <time>2022-10-08T13:17:20+02:00</time>
      </trkpt>
      <trkpt lat="43.53014" lon="5.59753">
        <ele>964</ele>
        <time>2022-10-08T13:17:58+02:00</time>
      </trkpt>
      <trkpt lat="43.53013" lon="5.59715">
        <ele>963</ele>
        <time>2022-10-08T13:18:34+02:00</time>
      </trkpt>
      <trkpt lat="43.53021" lon="5.59679">
        <ele>967</ele>
        <time>2022-10-08T13:19:17+02:00</time>
      </trkpt>
      <trkpt lat="43.53026" lon="5.59643">
        <ele>971</ele>
        <time>2022-10-08T13:19:56+02:00</time>
      </trkpt>
      <trkpt lat="43.53016" lon="5.59607">
        <ele>969</ele>
        <time>2022-10-08T13:20:35+02:00</time>
      </trkpt>
      <trkpt lat="43.53022" lon="5.59571">
        <ele>971</ele>
        <time>2022-10-08T13:21:05+02:00</time>
      </trkpt>
      <trkpt lat="43.53016" lon="5.59534">
        <ele>965</ele>
        <time>2022-10-08T13:21:46+02:00</time>
      </trkpt>
      <trkpt lat="43.53017" lon="5.59496">
        <ele>958</ele>
        <time>2022-10-08T13:22:27+02:00</time>
      </trkpt>
      <trkpt lat="43.53021" lon="5.59459">
        <ele>960</ele>
        <time>2022-10-08T13:23:17+02:00</time>
      </trkpt>
      <trkpt lat="43.53013" lon="5.59423">
        <ele>952</ele>
        <time>2022-10-08T13:24:00+02:00</time>
      </trkpt>
      <trkpt lat="43.53012" lon="5.59385">
        <ele>942</ele>
        <time>2022-10-08T13:24:46+02:00</time>
      </trkpt>
      <trkpt lat="43.53013" lon="5.59347">
        <ele>938</ele>
        <time>2022-10-08T13:25:30+02:00</time>
      </trkpt>
      <trkpt lat="43.53012" lon="5.59309">
        <ele>940</ele>
        <time>2022-10-08T13:26:16+02:00</time>
      </trkpt>
      <trkpt lat="43.53013" lon="5.59272">
        <ele>950</ele>
        <time>2022-10-08T13:27:05+02:00</time>
      </trkpt>
      <trkpt lat="43.53009" lon="5.59234">
        <ele>953</ele>
        <time>2022-10-08T13:27:52+02:00</time>
      </trkpt>
      <trkpt lat="43.52994" lon="5.59204">
        <ele>945</ele>
        <time>2022-10-08T13:28:37+02:00</time>
      </trkpt>
      <trkpt lat="43.52979" lon="5.5917">
        <ele>937</ele>
        <time>2022-10-08T13:29:06+02:00</time>
      </trkpt>
      <trkpt lat="43.52983" lon="5.59133">
        <ele>943</ele>
        <time>2022-10-08T13:29:27+02:00</time>
      </trkpt>
      <trkpt lat="43.5298" lon="5.59094">
        <ele>944</ele>
        <time>2022-10-08T13:30:01+02:00</time>
      </trkpt>
      <trkpt lat="43.52975" lon="5.59057">
        <ele>951</ele>
        <time>2022-10-08T13:30:33+02:00</time>
      </trkpt>
      <trkpt lat="43.52969" lon="5.5902">
        <ele>953</ele>
        <time>2022-10-08T13:31:17+02:00</time>
      </trkpt>
      <trkpt lat="43.52965" lon="5.58982">
        <ele>956</ele>
        <time>2022-10-08T13:31:48+02:00</time>
      </trkpt>
      <trkpt lat="43.52962" lon="5.58945">
        <ele>957</ele>
        <time>2022-10-08T13:32:16+02:00</time>
      </trkpt>
      <trkpt lat="43.52977" lon="5.58912">
        <ele>960</ele>
        <time>2022-10-08T13:32:55+02:00</time>
      </trkpt>
      <trkpt lat="43.52988" lon="5.58878">
        <ele>955</ele>
        <time>2022-10-08T13:33:48+02:00</time>
      </trkpt>
      <trkpt lat="43.53001" lon="5.58843">
        <ele>955</ele>
        <time>2022-10-08T13:34:28+02:00</time>
      </trkpt>
      <trkpt lat="43.53016" lon="5.5881">
        <ele>948</ele>
        <time>2022-10-08T13:35:01+02:00</time>
      </trkpt>
      <trkpt lat="43.53026" lon="5.58775">
        <ele>940</ele>
        <time>2022-10-08T13:35:47+02:00</time>
      </trkpt>
      <trkpt lat="43.53039" lon="5.58742">
        <ele>933</ele>
        <time>2022-10-08T13:36:33+02:00</time>
      </trkpt>
      <trkpt lat="43.53057" lon="5.58714">
        <ele>941</ele>
        <time>2022-10-08T13:37:10+02:00</time>
      </trkpt>
      <trkpt lat="43.53076" lon="5.58686">
        <ele>940</ele>
        <time>2022-10-08T13:38:15+02:00</time>
      </trkpt>
      <trkpt lat="43.53089" lon="5.58653">
        <ele>935</ele>
        <time>2022-10-08T13:39:11+02:00</time>
      </trkpt>
      <trkpt lat="43.53086" lon="5.58617">
        <ele>926</ele>
        <time>2022-10-08T13:40:01+02:00</time>
      </trkpt>
      <trkpt lat="43.53075" lon="5.58581">
        <ele>914</ele>
        <time>2022-10-08T13:41:28+02:00</time>
      </trkpt>
      <trkpt lat="43.53063" lon="5.58547">
        <ele>909</ele>
        <time>2022-10-08T13:42:35+02:00</time>
      </trkpt>
      <trkpt lat="43.53046" lon="5.58518">
        <ele>901</ele>
        <time>2022-10-08T13:44:30+02:00</time>
      </trkpt>
      <trkpt lat="43.53061" lon="5.58486">
        <ele>912</ele>
        <time>2022-10-08T13:45:35+02:00</time>
      </trkpt>
      <trkpt lat="43.53067" lon="5.58449">
        <ele>919</ele>
        <time>2022-10-08T13:46:20+02:00</time>
      </trkpt>
      <trkpt lat="43.53062" lon="5.58413">
        <ele>924</ele>
        <time>2022-10-08T13:47:06+02:00</time>
      </trkpt>
      <trkpt lat="43.53071" lon="5.58378">
        <ele>921</ele>
        <time>2022-10-08T13:48:02+02:00</time>
      </trkpt>
      <trkpt lat="43.53088" lon="5.58348">
        <ele>918</ele>
        <time>2022-10-08T13:49:40+02:00</time>
      </trkpt>
      <trkpt lat="43.53092" lon="5.58311">
        <ele>911</ele>
        <time>2022-10-08T13:50:18+02:00</time>
      </trkpt>
      <trkpt lat="43.53092" lon="5.58273">
        <ele>907</ele>
        <time>2022-10-08T13:50:47+02:00</time>
      </trkpt>
      <trkpt lat="43.53098" lon="5.58237">
        <ele>907</ele>
        <time>2022-10-08T13:51:38+02:00</time>
      </trkpt>
      <trkpt lat="43.53095" lon="5.58199">
        <ele>913</ele>
        <time>2022-10-08T13:52:23+02:00</time>
      </trkpt>
      <trkpt lat="43.53105" lon="5.58164">
        <ele>920</ele>
        <time>2022-10-08T13:53:21+02:00</time>
      </trkpt>
      <trkpt lat="43.53128" lon="5.58145">
        <ele>919</ele>
        <time>2022-10-08T13:54:26+02:00</time>
      </trkpt>
      <trkpt lat="43.5313" lon="5.58108">
        <ele>914</ele>
        <time>2022-10-08T13:57:00+02:00</time>
      </trkpt>
      <trkpt lat="43.53122" lon="5.58072">
        <ele>916</ele>
        <time>2022-10-08T13:58:09+02:00</time>
      </trkpt>
      <trkpt lat="43.53124" lon="5.58035">
        <ele>923</ele>
        <time>2022-10-08T13:58:44+02:00</time>
      </trkpt>
      <trkpt lat="43.5313" lon="5.57998">
        <ele>924</ele>
        <time>2022-10-08T13:59:24+02:00</time>
      </trkpt>
      <trkpt lat="43.53131" lon="5.57961">
        <ele>915</ele>
        <time>2022-10-08T14:00:05+02:00</time>
      </trkpt>
      <trkpt lat="43.53134" lon="5.57924">
        <ele>915</ele>
        <time>2022-10-08T14:02:27+02:00</time>
      </trkpt>
      <trkpt lat="43.53144" lon="5.57889">
        <ele>889</ele>
        <time>2022-10-08T14:04:39+02:00</time>
      </trkpt>
      <trkpt lat="43.5317" lon="5.57877">
        <ele>894</ele>
        <time>2022-10-08T14:09:20+02:00</time>
      </trkpt>
      <trkpt lat="43.5318" lon="5.57842">
        <ele>887</ele>
        <time>2022-10-08T14:10:11+02:00</time>
      </trkpt>
      <trkpt lat="43.53189" lon="5.57807">
        <ele>885</ele>
        <time>2022-10-08T14:10:39+02:00</time>
      </trkpt>
      <trkpt lat="43.53185" lon="5.5777">
        <ele>883</ele>
        <time>2022-10-08T14:22:38+02:00</time>
      </trkpt>
      <trkpt lat="43.53186" lon="5.57732">
        <ele>880</ele>
        <time>2022-10-08T14:23:09+02:00</time>
      </trkpt>
      <trkpt lat="43.53201" lon="5.577">
        <ele>880</ele>
        <time>2022-10-08T14:23:58+02:00</time>
      </trkpt>
      <trkpt lat="43.53215" lon="5.57667">
        <ele>874</ele>
        <time>2022-10-08T14:24:33+02:00</time>
      </trkpt>
      <trkpt lat="43.5322" lon="5.57629">
        <ele>872</ele>
        <time>2022-10-08T14:25:17+02:00</time>
      </trkpt>
      <trkpt lat="43.5323" lon="5.57664">
        <ele>867</ele>
        <time>2022-10-08T14:26:28+02:00</time>
      </trkpt>
      <trkpt lat="43.53228" lon="5.57626">
        <ele>867</ele>
        <time>2022-10-08T14:28:23+02:00</time>
      </trkpt>
      <trkpt lat="43.53222" lon="5.57589">
        <ele>869</ele>
        <time>2022-10-08T14:29:14+02:00</time>
      </trkpt>
      <trkpt lat="43.53249" lon="5.5759">
        <ele>855</ele>
        <time>2022-10-08T14:31:04+02:00</time>
      </trkpt>
      <trkpt lat="43.53262" lon="5.57557">
        <ele>849</ele>
        <time>2022-10-08T14:31:46+02:00</time>
      </trkpt>
      <trkpt lat="43.53283" lon="5.57533">
        <ele>837</ele>
        <time>2022-10-08T14:32:42+02:00</time>
      </trkpt>
      <trkpt lat="43.53296" lon="5.575">
        <ele>820</ele>
        <time>2022-10-08T14:33:26+02:00</time>
      </trkpt>
      <trkpt lat="43.53318" lon="5.57479">
        <ele>772</ele>
        <time>2022-10-08T14:34:52+02:00</time>
      </trkpt>
      <trkpt lat="43.53327" lon="5.57443">
        <ele>757</ele>
        <time>2022-10-08T14:35:24+02:00</time>
      </trkpt>
      <trkpt lat="43.53349" lon="5.57466">
        <ele>802</ele>
        <time>2022-10-08T14:35:58+02:00</time>
      </trkpt>
      <trkpt lat="43.53365" lon="5.57436">
        <ele>789</ele>
        <time>2022-10-08T14:37:13+02:00</time>
      </trkpt>
      <trkpt lat="43.53382" lon="5.57407">
        <ele>755</ele>
        <time>2022-10-08T14:38:16+02:00</time>
      </trkpt>
      <trkpt lat="43.53394" lon="5.57372">
        <ele>757</ele>
        <time>2022-10-08T14:39:31+02:00</time>
      </trkpt>
      <trkpt lat="43.53418" lon="5.57354">
        <ele>755</ele>
        <time>2022-10-08T14:40:15+02:00</time>
      </trkpt>
      <trkpt lat="43.53438" lon="5.57328">
        <ele>747</ele>
        <time>2022-10-08T14:41:08+02:00</time>
      </trkpt>
      <trkpt lat="43.53461" lon="5.57308">
        <ele>739</ele>
        <time>2022-10-08T14:41:58+02:00</time>
      </trkpt>
      <trkpt lat="43.53488" lon="5.57295">
        <ele>736</ele>
        <time>2022-10-08T14:42:25+02:00</time>
      </trkpt>
      <trkpt lat="43.53513" lon="5.5728">
        <ele>733</ele>
        <time>2022-10-08T14:43:05+02:00</time>
      </trkpt>
      <trkpt lat="43.53537" lon="5.57259">
        <ele>728</ele>
        <time>2022-10-08T14:43:33+02:00</time>
      </trkpt>
      <trkpt lat="43.53555" lon="5.57231">
        <ele>719</ele>
        <time>2022-10-08T14:44:23+02:00</time>
      </trkpt>
      <trkpt lat="43.5358" lon="5.57215">
        <ele>716</ele>
        <time>2022-10-08T14:44:59+02:00</time>
      </trkpt>
      <trkpt lat="43.53605" lon="5.57202">
        <ele>660</ele>
        <time>2022-10-08T14:46:13+02:00</time>
      </trkpt>
      <trkpt lat="43.53626" lon="5.57177">
        <ele>658</ele>
        <time>2022-10-08T14:47:30+02:00</time>
      </trkpt>
      <trkpt lat="43.53643" lon="5.57146">
        <ele>692</ele>
        <time>2022-10-08T14:49:32+02:00</time>
      </trkpt>
      <trkpt lat="43.53649" lon="5.5711">
        <ele>678</ele>
        <time>2022-10-08T14:50:02+02:00</time>
      </trkpt>
      <trkpt lat="43.53663" lon="5.57078">
        <ele>670</ele>
        <time>2022-10-08T14:50:48+02:00</time>
      </trkpt>
      <trkpt lat="43.5364" lon="5.57099">
        <ele>672</ele>
        <time>2022-10-08T14:52:45+02:00</time>
      </trkpt>
      <trkpt lat="43.53623" lon="5.57069">
        <ele>682</ele>
        <time>2022-10-08T14:54:25+02:00</time>
      </trkpt>
      <trkpt lat="43.53596" lon="5.57072">
        <ele>645</ele>
        <time>2022-10-08T14:55:52+02:00</time>
      </trkpt>
      <trkpt lat="43.53572" lon="5.57051">
        <ele>631</ele>
        <time>2022-10-08T14:57:30+02:00</time>
      </trkpt>
      <trkpt lat="43.53546" lon="5.5706">
        <ele>623</ele>
        <time>2022-10-08T14:58:20+02:00</time>
      </trkpt>
      <trkpt lat="43.53521" lon="5.57043">
        <ele>631</ele>
        <time>2022-10-08T15:00:21+02:00</time>
      </trkpt>
      <trkpt lat="43.53494" lon="5.57042">
        <ele>597</ele>
        <time>2022-10-08T15:01:34+02:00</time>
      </trkpt>
      <trkpt lat="43.53467" lon="5.57032">
        <ele>588</ele>
        <time>2022-10-08T15:02:22+02:00</time>
      </trkpt>
      <trkpt lat="43.53439" lon="5.57032">
        <ele>582</ele>
        <time>2022-10-08T15:02:51+02:00</time>
      </trkpt>
      <trkpt lat="43.53416" lon="5.57012">
        <ele>574</ele>
        <time>2022-10-08T15:03:35+02:00</time>
      </trkpt>
      <trkpt lat="43.53391" lon="5.56998">
        <ele>565</ele>
        <time>2022-10-08T15:04:31+02:00</time>
      </trkpt>
      <trkpt lat="43.53363" lon="5.56994">
        <ele>564</ele>
        <time>2022-10-08T15:04:51+02:00</time>
      </trkpt>
      <trkpt lat="43.53338" lon="5.56975">
        <ele>562</ele>
        <time>2022-10-08T15:05:13+02:00</time>
      </trkpt>
      <trkpt lat="43.53315" lon="5.56956">
        <ele>556</ele>
        <time>2022-10-08T15:05:47+02:00</time>
      </trkpt>
      <trkpt lat="43.53288" lon="5.56947">
        <ele>552</ele>
        <time>2022-10-08T15:06:48+02:00</time>
      </trkpt>
      <trkpt lat="43.53267" lon="5.56924">
        <ele>547</ele>
        <time>2022-10-08T15:07:23+02:00</time>
      </trkpt>
      <trkpt lat="43.53247" lon="5.56896">
        <ele>543</ele>
        <time>2022-10-08T15:07:47+02:00</time>
      </trkpt>
      <trkpt lat="43.53228" lon="5.5687">
        <ele>540</ele>
        <time>2022-10-08T15:08:09+02:00</time>
      </trkpt>
      <trkpt lat="43.53214" lon="5.56838">
        <ele>537</ele>
        <time>2022-10-08T15:08:51+02:00</time>
      </trkpt>
      <trkpt lat="43.53199" lon="5.56806">
        <ele>533</ele>
        <time>2022-10-08T15:09:45+02:00</time>
      </trkpt>
      <trkpt lat="43.53178" lon="5.5678">
        <ele>526</ele>
        <time>2022-10-08T15:10:18+02:00</time>
      </trkpt>
      <trkpt lat="43.53154" lon="5.56763">
        <ele>516</ele>
        <time>2022-10-08T15:11:15+02:00</time>
      </trkpt>
      <trkpt lat="43.53153" lon="5.56725">
        <ele>513</ele>
        <time>2022-10-08T15:11:58+02:00</time>
      </trkpt>
      <trkpt lat="43.53128" lon="5.5671">
        <ele>501</ele>
        <time>2022-10-08T15:13:12+02:00</time>
      </trkpt>
      <trkpt lat="43.53107" lon="5.56687">
        <ele>492</ele>
        <time>2022-10-08T15:14:01+02:00</time>
      </trkpt>
      <trkpt lat="43.5308" lon="5.56682">
        <ele>489</ele>
        <time>2022-10-08T15:14:34+02:00</time>
      </trkpt>
      <trkpt lat="43.5306" lon="5.56708">
        <ele>487</ele>
        <time>2022-10-08T15:15:26+02:00</time>
      </trkpt>
      <trkpt lat="43.53059" lon="5.56746">
        <ele>483</ele>
        <time>2022-10-08T15:15:54+02:00</time>
      </trkpt>
      <trkpt lat="43.53058" lon="5.56784">
        <ele>475</ele>
        <time>2022-10-08T15:16:20+02:00</time>
      </trkpt>
      <trkpt lat="43.53038" lon="5.5681">
        <ele>465</ele>
        <time>2022-10-08T15:17:30+02:00</time>
      </trkpt>
      <trkpt lat="43.53025" lon="5.56843">
        <ele>457</ele>
        <time>2022-10-08T15:18:17+02:00</time>
      </trkpt>
      <trkpt lat="43.53005" lon="5.5687">
        <ele>452</ele>
        <time>2022-10-08T15:18:59+02:00</time>
      </trkpt>
      <trkpt lat="43.52997" lon="5.56907">
        <ele>451</ele>
        <time>2022-10-08T15:19:23+02:00</time>
      </trkpt>
      <trkpt lat="43.52982" lon="5.56937">
        <ele>449</ele>
        <time>2022-10-08T15:19:43+02:00</time>
      </trkpt>
      <trkpt lat="43.52967" lon="5.56969">
        <ele>448</ele>
        <time>2022-10-08T15:20:22+02:00</time>
      </trkpt>
      <trkpt lat="43.52948" lon="5.56998">
        <ele>449</ele>
        <time>2022-10-08T15:21:18+02:00</time>
      </trkpt>
      <trkpt lat="43.52928" lon="5.57028">
        <ele>453</ele>
        <time>2022-10-08T15:22:42+02:00</time>
      </trkpt>
      <trkpt lat="43.52917" lon="5.57063">
        <ele>456</ele>
        <time>2022-10-08T15:23:08+02:00</time>
      </trkpt>
      <trkpt lat="43.52906" lon="5.57097">
        <ele>458</ele>
        <time>2022-10-08T15:24:15+02:00</time>
      </trkpt>
      <trkpt lat="43.52894" lon="5.57135">
        <ele>458</ele>
        <time>2022-10-08T15:24:34+02:00</time>
      </trkpt>
      <trkpt lat="43.52887" lon="5.57171">
        <ele>458</ele>
        <time>2022-10-08T15:24:59+02:00</time>
      </trkpt>
      <trkpt lat="43.52884" lon="5.57209">
        <ele>462</ele>
        <time>2022-10-08T15:25:21+02:00</time>
      </trkpt>
      <trkpt lat="43.52874" lon="5.57244">
        <ele>463</ele>
        <time>2022-10-08T15:25:29+02:00</time>
      </trkpt>
      <trkpt lat="43.52875" lon="5.57283">
        <ele>463</ele>
        <time>2022-10-08T15:25:51+02:00</time>
      </trkpt>
      <trkpt lat="43.52878" lon="5.5732">
        <ele>469</ele>
        <time>2022-10-08T15:26:23+02:00</time>
      </trkpt>
      <trkpt lat="43.52887" lon="5.57356">
        <ele>476</ele>
        <time>2022-10-08T15:27:42+02:00</time>
      </trkpt>
      <trkpt lat="43.52873" lon="5.5739">
        <ele>474</ele>
        <time>2022-10-08T15:27:54+02:00</time>
      </trkpt>
      <trkpt lat="43.52861" lon="5.57428">
        <ele>424</ele>
        <time>2022-10-08T15:28:03+02:00</time>
      </trkpt>
      <trkpt lat="43.52856" lon="5.57465">
        <ele>472</ele>
        <time>2022-10-08T15:28:37+02:00</time>
      </trkpt>
      <trkpt lat="43.52829" lon="5.57474">
        <ele>457</ele>
        <time>2022-10-08T15:29:52+02:00</time>
      </trkpt>
      <trkpt lat="43.52825" lon="5.57511">
        <ele>458</ele>
        <time>2022-10-08T15:41:52+02:00</time>
      </trkpt>
      <trkpt lat="43.52828" lon="5.57548">
        <ele>459</ele>
        <time>2022-10-08T15:42:20+02:00</time>
      </trkpt>
      <trkpt lat="43.52822" lon="5.57586">
        <ele>466</ele>
        <time>2022-10-08T15:42:47+02:00</time>
      </trkpt>
      <trkpt lat="43.52808" lon="5.57619">
        <ele>467</ele>
        <time>2022-10-08T15:43:23+02:00</time>
      </trkpt>
      <trkpt lat="43.52793" lon="5.57652">
        <ele>474</ele>
        <time>2022-10-08T15:43:47+02:00</time>
      </trkpt>
      <trkpt lat="43.52781" lon="5.57685">
        <ele>478</ele>
        <time>2022-10-08T15:44:18+02:00</time>
      </trkpt>
      <trkpt lat="43.52763" lon="5.57713">
        <ele>480</ele>
        <time>2022-10-08T15:45:07+02:00</time>
      </trkpt>
      <trkpt lat="43.52756" lon="5.57749">
        <ele>489</ele>
        <time>2022-10-08T15:45:33+02:00</time>
      </trkpt>
      <trkpt lat="43.52739" lon="5.57781">
        <ele>492</ele>
        <time>2022-10-08T15:45:58+02:00</time>
      </trkpt>
      <trkpt lat="43.52733" lon="5.57818">
        <ele>497</ele>
        <time>2022-10-08T15:47:05+02:00</time>
      </trkpt>
      <trkpt lat="43.52718" lon="5.5785">
        <ele>500</ele>
        <time>2022-10-08T15:47:28+02:00</time>
      </trkpt>
      <trkpt lat="43.52703" lon="5.57883">
        <ele>501</ele>
        <time>2022-10-08T15:47:54+02:00</time>
      </trkpt>
      <trkpt lat="43.52706" lon="5.57922">
        <ele>509</ele>
        <time>2022-10-08T15:48:26+02:00</time>
      </trkpt>
      <trkpt lat="43.52708" lon="5.57959">
        <ele>513</ele>
        <time>2022-10-08T15:49:10+02:00</time>
      </trkpt>
      <trkpt lat="43.52716" lon="5.57995">
        <ele>521</ele>
        <time>2022-10-08T15:49:45+02:00</time>
      </trkpt>
      <trkpt lat="43.527" lon="5.58026">
        <ele>520</ele>
        <time>2022-10-08T15:50:16+02:00</time>
      </trkpt>
      <trkpt lat="43.52686" lon="5.58059">
        <ele>526</ele>
        <time>2022-10-08T15:50:37+02:00</time>
      </trkpt>
      <trkpt lat="43.52661" lon="5.58073">
        <ele>530</ele>
        <time>2022-10-08T15:51:11+02:00</time>
      </trkpt>
      <trkpt lat="43.52633" lon="5.58072">
        <ele>515</ele>
        <time>2022-10-08T15:51:38+02:00</time>
      </trkpt>
      <trkpt lat="43.52625" lon="5.58107">
        <ele>530</ele>
        <time>2022-10-08T15:52:50+02:00</time>
      </trkpt>
      <trkpt lat="43.52618" lon="5.58146">
        <ele>532</ele>
        <time>2022-10-08T15:53:13+02:00</time>
      </trkpt>
      <trkpt lat="43.52615" lon="5.58183">
        <ele>537</ele>
        <time>2022-10-08T15:53:40+02:00</time>
      </trkpt>
      <trkpt lat="43.52619" lon="5.58221">
        <ele>546</ele>
        <time>2022-10-08T15:54:28+02:00</time>
      </trkpt>
      <trkpt lat="43.52607" lon="5.58255">
        <ele>552</ele>
        <time>2022-10-08T15:54:49+02:00</time>
      </trkpt>
      <trkpt lat="43.52584" lon="5.58279">
        <ele>558</ele>
        <time>2022-10-08T15:55:33+02:00</time>
      </trkpt>
      <trkpt lat="43.52557" lon="5.58276">
        <ele>561</ele>
        <time>2022-10-08T15:55:46+02:00</time>
      </trkpt>
      <trkpt lat="43.52585" lon="5.58275">
        <ele>557</ele>
        <time>2022-10-08T15:57:32+02:00</time>
      </trkpt>
      <trkpt lat="43.52607" lon="5.58296">
        <ele>559</ele>
        <time>2022-10-08T16:01:59+02:00</time>
      </trkpt>
      <trkpt lat="43.52593" lon="5.58329">
        <ele>568</ele>
        <time>2022-10-08T16:02:41+02:00</time>
      </trkpt>
      <trkpt lat="43.526" lon="5.58366">
        <ele>573</ele>
        <time>2022-10-08T16:03:09+02:00</time>
      </trkpt>
      <trkpt lat="43.52601" lon="5.58403">
        <ele>577</ele>
        <time>2022-10-08T16:03:53+02:00</time>
      </trkpt>
      <trkpt lat="43.52623" lon="5.58424">
        <ele>579</ele>
        <time>2022-10-08T16:04:38+02:00</time>
      </trkpt>
      <trkpt lat="43.52605" lon="5.58451">
        <ele>582</ele>
        <time>2022-10-08T16:05:24+02:00</time>
      </trkpt>
      <trkpt lat="43.52596" lon="5.58486">
        <ele>582</ele>
        <time>2022-10-08T16:06:55+02:00</time>
      </trkpt>
      <trkpt lat="43.52588" lon="5.58523">
        <ele>578</ele>
        <time>2022-10-08T16:07:27+02:00</time>
      </trkpt>
      <trkpt lat="43.52586" lon="5.58561">
        <ele>573</ele>
        <time>2022-10-08T16:07:58+02:00</time>
      </trkpt>
      <trkpt lat="43.52575" lon="5.58595">
        <ele>567</ele>
        <time>2022-10-08T16:08:52+02:00</time>
      </trkpt>
      <trkpt lat="43.5257" lon="5.58633">
        <ele>562</ele>
        <time>2022-10-08T16:09:59+02:00</time>
      </trkpt>
      <trkpt lat="43.52597" lon="5.58645">
        <ele>556</ele>
        <time>2022-10-08T16:10:11+02:00</time>
      </trkpt>
      <trkpt lat="43.52611" lon="5.58677">
        <ele>543</ele>
        <time>2022-10-08T16:10:41+02:00</time>
      </trkpt>
      <trkpt lat="43.52632" lon="5.58702">
        <ele>540</ele>
        <time>2022-10-08T16:10:59+02:00</time>
      </trkpt>
      <trkpt lat="43.52616" lon="5.58732">
        <ele>531</ele>
        <time>2022-10-08T16:14:12+02:00</time>
      </trkpt>
      <trkpt lat="43.52593" lon="5.58754">
        <ele>527</ele>
        <time>2022-10-08T16:15:13+02:00</time>
      </trkpt>
      <trkpt lat="43.52579" lon="5.58786">
        <ele>521</ele>
        <time>2022-10-08T16:15:44+02:00</time>
      </trkpt>
      <trkpt lat="43.52578" lon="5.58825">
        <ele>513</ele>
        <time>2022-10-08T16:16:36+02:00</time>
      </trkpt>
      <trkpt lat="43.52581" lon="5.58864">
        <ele>512</ele>
        <time>2022-10-08T16:17:02+02:00</time>
      </trkpt>
      <trkpt lat="43.52576" lon="5.58902">
        <ele>517</ele>
        <time>2022-10-08T16:17:28+02:00</time>
      </trkpt>
      <trkpt lat="43.52572" lon="5.58939">
        <ele>525</ele>
        <time>2022-10-08T16:17:53+02:00</time>
      </trkpt>
      <trkpt lat="43.52576" lon="5.58977">
        <ele>527</ele>
        <time>2022-10-08T16:18:33+02:00</time>
      </trkpt>
      <trkpt lat="43.52558" lon="5.59006">
        <ele>529</ele>
        <time>2022-10-08T16:18:57+02:00</time>
      </trkpt>
      <trkpt lat="43.52543" lon="5.59039">
        <ele>522</ele>
        <time>2022-10-08T16:20:08+02:00</time>
      </trkpt>
      <trkpt lat="43.52533" lon="5.59075">
        <ele>516</ele>
        <time>2022-10-08T16:20:30+02:00</time>
      </trkpt>
      <trkpt lat="43.52529" lon="5.59112">
        <ele>516</ele>
        <time>2022-10-08T16:20:50+02:00</time>
      </trkpt>
      <trkpt lat="43.52527" lon="5.59149">
        <ele>519</ele>
        <time>2022-10-08T16:21:22+02:00</time>
      </trkpt>
      <trkpt lat="43.52525" lon="5.59186">
        <ele>517</ele>
        <time>2022-10-08T16:21:45+02:00</time>
      </trkpt>
      <trkpt lat="43.52511" lon="5.59219">
        <ele>511</ele>
        <time>2022-10-08T16:22:06+02:00</time>
      </trkpt>
      <trkpt lat="43.52506" lon="5.59256">
        <ele>505</ele>
        <time>2022-10-08T16:22:56+02:00</time>
      </trkpt>
      <trkpt lat="43.52499" lon="5.59294">
        <ele>500</ele>
        <time>2022-10-08T16:24:03+02:00</time>
      </trkpt>
      <trkpt lat="43.52498" lon="5.59331">
        <ele>497</ele>
        <time>2022-10-08T16:24:39+02:00</time>
      </trkpt>
      <trkpt lat="43.52481" lon="5.5936">
        <ele>493</ele>
        <time>2022-10-08T16:25:09+02:00</time>
      </trkpt>
      <trkpt lat="43.52467" lon="5.59392">
        <ele>493</ele>
        <time>2022-10-08T16:25:39+02:00</time>
      </trkpt>
      <trkpt lat="43.52457" lon="5.59427">
        <ele>495</ele>
        <time>2022-10-08T16:26:02+02:00</time>
      </trkpt>
      <trkpt lat="43.52451" lon="5.59464">
        <ele>493</ele>
        <time>2022-10-08T16:26:23+02:00</time>
      </trkpt>
      <trkpt lat="43.52456" lon="5.59501">
        <ele>496</ele>
        <time>2022-10-08T16:26:47+02:00</time>
      </trkpt>
      <trkpt lat="43.52465" lon="5.59538">
        <ele>497</ele>
        <time>2022-10-08T16:27:09+02:00</time>
      </trkpt>
      <trkpt lat="43.52468" lon="5.59576">
        <ele>496</ele>
        <time>2022-10-08T16:27:31+02:00</time>
      </trkpt>
      <trkpt lat="43.52447" lon="5.596">
        <ele>497</ele>
        <time>2022-10-08T16:28:08+02:00</time>
      </trkpt>
      <trkpt lat="43.5244" lon="5.59636">
        <ele>505</ele>
        <time>2022-10-08T16:30:00+02:00</time>
      </trkpt>
      <trkpt lat="43.52453" lon="5.59669">
        <ele>510</ele>
        <time>2022-10-08T16:30:44+02:00</time>
      </trkpt>
      <trkpt lat="43.5244" lon="5.59702">
        <ele>522</ele>
        <time>2022-10-08T16:31:45+02:00</time>
      </trkpt>
      <trkpt lat="43.52429" lon="5.59737">
        <ele>527</ele>
        <time>2022-10-08T16:32:38+02:00</time>
      </trkpt>
      <trkpt lat="43.52426" lon="5.59775">
        <ele>525</ele>
        <time>2022-10-08T16:33:11+02:00</time>
      </trkpt>
      <trkpt lat="43.52429" lon="5.59812">
        <ele>522</ele>
        <time>2022-10-08T16:33:38+02:00</time>
      </trkpt>
      <trkpt lat="43.52425" lon="5.5985">
        <ele>519</ele>
        <time>2022-10-08T16:33:59+02:00</time>
      </trkpt>
      <trkpt lat="43.52423" lon="5.59888">
        <ele>518</ele>
        <time>2022-10-08T16:34:24+02:00</time>
      </trkpt>
      <trkpt lat="43.5242" lon="5.59926">
        <ele>518</ele>
        <time>2022-10-08T16:34:59+02:00</time>
      </trkpt>
      <trkpt lat="43.52413" lon="5.59962">
        <ele>516</ele>
        <time>2022-10-08T16:35:26+02:00</time>
      </trkpt>
      <trkpt lat="43.52404" lon="5.59998">
        <ele>519</ele>
        <time>2022-10-08T16:35:47+02:00</time>
      </trkpt>
      <trkpt lat="43.52403" lon="5.60036">
        <ele>524</ele>
        <time>2022-10-08T16:36:39+02:00</time>
      </trkpt>
      <trkpt lat="43.52426" lon="5.6006">
        <ele>529</ele>
        <time>2022-10-08T16:37:15+02:00</time>
      </trkpt>
      <trkpt lat="43.52452" lon="5.60079">
        <ele>533</ele>
        <time>2022-10-08T16:38:40+02:00</time>
      </trkpt>
      <trkpt lat="43.52467" lon="5.6011">
        <ele>539</ele>
        <time>2022-10-08T16:39:28+02:00</time>
      </trkpt>
      <trkpt lat="43.52476" lon="5.60145">
        <ele>546</ele>
        <time>2022-10-08T16:40:34+02:00</time>
      </trkpt>
      <trkpt lat="43.52482" lon="5.60181">
        <ele>553</ele>
        <time>2022-10-08T16:42:16+02:00</time>
      </trkpt>
      <trkpt lat="43.52465" lon="5.6021">
        <ele>547</ele>
        <time>2022-10-08T16:44:15+02:00</time>
      </trkpt>
      <trkpt lat="43.52455" lon="5.60245">
        <ele>536</ele>
        <time>2022-10-08T16:45:35+02:00</time>
      </trkpt>
      <trkpt lat="43.52433" lon="5.60268">
        <ele>527</ele>
        <time>2022-10-08T16:47:00+02:00</time>
      </trkpt>
      <trkpt lat="43.52429" lon="5.60305">
        <ele>518</ele>
        <time>2022-10-08T16:47:51+02:00</time>
      </trkpt>
      <trkpt lat="43.52427" lon="5.60342">
        <ele>510</ele>
        <time>2022-10-08T16:48:39+02:00</time>
      </trkpt>
      <trkpt lat="43.52429" lon="5.60379">
        <ele>505</ele>
        <time>2022-10-08T16:49:03+02:00</time>
      </trkpt>
      <trkpt lat="43.52428" lon="5.60416">
        <ele>501</ele>
        <time>2022-10-08T16:49:35+02:00</time>
      </trkpt>
      <trkpt lat="43.52415" lon="5.6045">
        <ele>502</ele>
        <time>2022-10-08T16:50:26+02:00</time>
      </trkpt>
      <trkpt lat="43.52414" lon="5.60487">
        <ele>505</ele>
        <time>2022-10-08T16:51:11+02:00</time>
      </trkpt>
      <trkpt lat="43.52433" lon="5.60515">
        <ele>511</ele>
        <time>2022-10-08T16:52:05+02:00</time>
      </trkpt>
      <trkpt lat="43.52449" lon="5.60545">
        <ele>514</ele>
        <time>2022-10-08T16:52:28+02:00</time>
      </trkpt>
      <trkpt lat="43.5246" lon="5.6058">
        <ele>518</ele>
        <time>2022-10-08T16:52:57+02:00</time>
      </trkpt>
      <trkpt lat="43.52465" lon="5.60617">
        <ele>520</ele>
        <time>2022-10-08T16:53:38+02:00</time>
      </trkpt>
      <trkpt lat="43.52465" lon="5.60655">
        <ele>522</ele>
        <time>2022-10-08T16:53:59+02:00</time>
      </trkpt>
      <trkpt lat="43.52461" lon="5.60693">
        <ele>524</ele>
        <time>2022-10-08T16:54:42+02:00</time>
      </trkpt>
      <trkpt lat="43.52468" lon="5.60729">
        <ele>527</ele>
        <time>2022-10-08T16:55:07+02:00</time>
      </trkpt>
      <trkpt lat="43.52472" lon="5.60767">
        <ele>530</ele>
        <time>2022-10-08T16:55:31+02:00</time>
      </trkpt>
      <trkpt lat="43.52471" lon="5.60806">
        <ele>537</ele>
        <time>2022-10-08T16:55:54+02:00</time>
      </trkpt>
      <trkpt lat="43.52451" lon="5.60832">
        <ele>536</ele>
        <time>2022-10-08T16:56:23+02:00</time>
      </trkpt>
      <trkpt lat="43.52424" lon="5.60825">
        <ele>541</ele>
        <time>2022-10-08T16:57:13+02:00</time>
      </trkpt>
      <trkpt lat="43.52399" lon="5.60841">
        <ele>537</ele>
        <time>2022-10-08T16:57:54+02:00</time>
      </trkpt>
      <trkpt lat="43.52398" lon="5.60878">
        <ele>535</ele>
        <time>2022-10-08T16:58:14+02:00</time>
      </trkpt>
      <trkpt lat="43.52407" lon="5.60914">
        <ele>539</ele>
        <time>2022-10-08T16:58:33+02:00</time>
      </trkpt>
      <trkpt lat="43.52421" lon="5.60947">
        <ele>541</ele>
        <time>2022-10-08T16:58:52+02:00</time>
      </trkpt>
      <trkpt lat="43.52448" lon="5.60959">
        <ele>546</ele>
        <time>2022-10-08T16:59:18+02:00</time>
      </trkpt>
      <trkpt lat="43.52468" lon="5.60984">
        <ele>547</ele>
        <time>2022-10-08T16:59:35+02:00</time>
      </trkpt>
      <trkpt lat="43.52493" lon="5.60998">
        <ele>551</ele>
        <time>2022-10-08T17:00:23+02:00</time>
      </trkpt>
      <trkpt lat="43.52519" lon="5.61014">
        <ele>554</ele>
        <time>2022-10-08T17:00:44+02:00</time>
      </trkpt>
      <trkpt lat="43.52529" lon="5.61049">
        <ele>552</ele>
        <time>2022-10-08T17:01:08+02:00</time>
      </trkpt>
      <trkpt lat="43.52528" lon="5.61087">
        <ele>555</ele>
        <time>2022-10-08T17:01:30+02:00</time>
      </trkpt>
      <trkpt lat="43.52539" lon="5.61124">
        <ele>559</ele>
        <time>2022-10-08T17:01:55+02:00</time>
      </trkpt>
      <trkpt lat="43.52548" lon="5.61159">
        <ele>559</ele>
        <time>2022-10-08T17:02:16+02:00</time>
      </trkpt>
      <trkpt lat="43.52542" lon="5.61197">
        <ele>563</ele>
        <time>2022-10-08T17:03:05+02:00</time>
      </trkpt>
      <trkpt lat="43.52545" lon="5.61234">
        <ele>568</ele>
        <time>2022-10-08T17:03:31+02:00</time>
      </trkpt>
      <trkpt lat="43.52552" lon="5.61271">
        <ele>572</ele>
        <time>2022-10-08T17:04:00+02:00</time>
      </trkpt>
      <trkpt lat="43.52553" lon="5.6131">
        <ele>573</ele>
        <time>2022-10-08T17:04:23+02:00</time>
      </trkpt>
      <trkpt lat="43.52541" lon="5.61345">
        <ele>576</ele>
        <time>2022-10-08T17:04:42+02:00</time>
      </trkpt>
      <trkpt lat="43.52531" lon="5.6138">
        <ele>579</ele>
        <time>2022-10-08T17:05:08+02:00</time>
      </trkpt>
      <trkpt lat="43.5254" lon="5.61416">
        <ele>583</ele>
        <time>2022-10-08T17:05:47+02:00</time>
      </trkpt>
      <trkpt lat="43.52553" lon="5.61449">
        <ele>583</ele>
        <time>2022-10-08T17:06:08+02:00</time>
      </trkpt>
      <trkpt lat="43.52568" lon="5.61482">
        <ele>586</ele>
        <time>2022-10-08T17:06:31+02:00</time>
      </trkpt>
      <trkpt lat="43.52582" lon="5.61515">
        <ele>589</ele>
        <time>2022-10-08T17:09:34+02:00</time>
      </trkpt>
      <trkpt lat="43.52604" lon="5.61492">
        <ele>602</ele>
        <time>2022-10-08T17:11:21+02:00</time>
      </trkpt>
      <trkpt lat="43.52576" lon="5.61489">
        <ele>590</ele>
        <time>2022-10-08T17:14:56+02:00</time>
      </trkpt>
      <trkpt lat="43.52579" lon="5.61527">
        <ele>587</ele>
        <time>2022-10-08T17:16:34+02:00</time>
      </trkpt>
      <trkpt lat="43.52581" lon="5.61565">
        <ele>590</ele>
        <time>2022-10-08T17:16:57+02:00</time>
      </trkpt>
      <trkpt lat="43.52553" lon="5.61567">
        <ele>590</ele>
        <time>2022-10-08T17:17:23+02:00</time>
      </trkpt>
      <trkpt lat="43.52525" lon="5.61559">
        <ele>589</ele>
        <time>2022-10-08T17:17:48+02:00</time>
      </trkpt>
      <trkpt lat="43.52499" lon="5.6155">
        <ele>583</ele>
        <time>2022-10-08T17:18:16+02:00</time>
      </trkpt>
      <trkpt lat="43.52472" lon="5.61542">
        <ele>579</ele>
        <time>2022-10-08T17:18:56+02:00</time>
      </trkpt>
      <trkpt lat="43.52446" lon="5.61553">
        <ele>577</ele>
        <time>2022-10-08T17:19:30+02:00</time>
      </trkpt>
      <trkpt lat="43.52429" lon="5.61583">
        <ele>571</ele>
        <time>2022-10-08T17:19:50+02:00</time>
      </trkpt>
      <trkpt lat="43.52417" lon="5.61617">
        <ele>566</ele>
        <time>2022-10-08T17:20:23+02:00</time>
      </trkpt>
      <trkpt lat="43.52412" lon="5.61655">
        <ele>561</ele>
        <time>2022-10-08T17:20:46+02:00</time>
      </trkpt>
      <trkpt lat="43.52402" lon="5.61692">
        <ele>554</ele>
        <time>2022-10-08T17:21:07+02:00</time>
      </trkpt>
      <trkpt lat="43.524" lon="5.6173">
        <ele>553</ele>
        <time>2022-10-08T17:21:35+02:00</time>
      </trkpt>
      <trkpt lat="43.52384" lon="5.61762">
        <ele>548</ele>
        <time>2022-10-08T17:21:56+02:00</time>
      </trkpt>
      <trkpt lat="43.52364" lon="5.61789">
        <ele>544</ele>
        <time>2022-10-08T17:22:31+02:00</time>
      </trkpt>
      <trkpt lat="43.52338" lon="5.61778">
        <ele>541</ele>
        <time>2022-10-08T17:22:53+02:00</time>
      </trkpt>
      <trkpt lat="43.52314" lon="5.6176">
        <ele>535</ele>
        <time>2022-10-08T17:23:13+02:00</time>
      </trkpt>
      <trkpt lat="43.52293" lon="5.61736">
        <ele>533</ele>
        <time>2022-10-08T17:23:35+02:00</time>
      </trkpt>
      <trkpt lat="43.52265" lon="5.61727">
        <ele>530</ele>
        <time>2022-10-08T17:24:04+02:00</time>
      </trkpt>
      <trkpt lat="43.52238" lon="5.6172">
        <ele>527</ele>
        <time>2022-10-08T17:24:25+02:00</time>
      </trkpt>
      <trkpt lat="43.52212" lon="5.61705">
        <ele>522</ele>
        <time>2022-10-08T17:24:50+02:00</time>
      </trkpt>
      <trkpt lat="43.52186" lon="5.61717">
        <ele>521</ele>
        <time>2022-10-08T17:25:09+02:00</time>
      </trkpt>
      <trkpt lat="43.52159" lon="5.61726">
        <ele>518</ele>
        <time>2022-10-08T17:25:29+02:00</time>
      </trkpt>
      <trkpt lat="43.52166" lon="5.61763">
        <ele>516</ele>
        <time>2022-10-08T17:26:44+02:00</time>
      </trkpt>
      <trkpt lat="43.52188" lon="5.61788">
        <ele>518</ele>
        <time>2022-10-08T17:27:13+02:00</time>
      </trkpt>
      <trkpt lat="43.52212" lon="5.61806">
        <ele>521</ele>
        <time>2022-10-08T17:28:02+02:00</time>
      </trkpt>
      <trkpt lat="43.52236" lon="5.61825">
        <ele>524</ele>
        <time>2022-10-08T17:28:21+02:00</time>
      </trkpt>
      <trkpt lat="43.5226" lon="5.61847">
        <ele>526</ele>
        <time>2022-10-08T17:28:43+02:00</time>
      </trkpt>
      <trkpt lat="43.5227" lon="5.61881">
        <ele>527</ele>
        <time>2022-10-08T17:29:10+02:00</time>
      </trkpt>
      <trkpt lat="43.52289" lon="5.61909">
        <ele>528</ele>
        <time>2022-10-08T17:29:27+02:00</time>
      </trkpt>
      <trkpt lat="43.52306" lon="5.61938">
        <ele>529</ele>
        <time>2022-10-08T17:29:48+02:00</time>
      </trkpt>
      <trkpt lat="43.5232" lon="5.6197">
        <ele>531</ele>
        <time>2022-10-08T17:30:16+02:00</time>
      </trkpt>
      <trkpt lat="43.52331" lon="5.62004">
        <ele>533</ele>
        <time>2022-10-08T17:30:41+02:00</time>
      </trkpt>
      <trkpt lat="43.52359" lon="5.62007">
        <ele>539</ele>
        <time>2022-10-08T17:31:06+02:00</time>
      </trkpt>
      <trkpt lat="43.52383" lon="5.62027">
        <ele>542</ele>
        <time>2022-10-08T17:31:31+02:00</time>
      </trkpt>
      <trkpt lat="43.52406" lon="5.62048">
        <ele>546</ele>
        <time>2022-10-08T17:31:55+02:00</time>
      </trkpt>
      <trkpt lat="43.52426" lon="5.62071">
        <ele>549</ele>
        <time>2022-10-08T17:32:17+02:00</time>
      </trkpt>
      <trkpt lat="43.52452" lon="5.62087">
        <ele>553</ele>
        <time>2022-10-08T17:33:32+02:00</time>
      </trkpt>
      <trkpt lat="43.52468" lon="5.62117">
        <ele>551</ele>
        <time>2022-10-08T17:33:56+02:00</time>
      </trkpt>
      <trkpt lat="43.52494" lon="5.62129">
        <ele>555</ele>
        <time>2022-10-08T17:34:24+02:00</time>
      </trkpt>
      <trkpt lat="43.52522" lon="5.62131">
        <ele>561</ele>
        <time>2022-10-08T17:35:08+02:00</time>
      </trkpt>
      <trkpt lat="43.52546" lon="5.6215">
        <ele>564</ele>
        <time>2022-10-08T17:35:30+02:00</time>
      </trkpt>
      <trkpt lat="43.5256" lon="5.62181">
        <ele>565</ele>
        <time>2022-10-08T17:35:55+02:00</time>
      </trkpt>
      <trkpt lat="43.52571" lon="5.62216">
        <ele>563</ele>
        <time>2022-10-08T17:36:17+02:00</time>
      </trkpt>
      <trkpt lat="43.52597" lon="5.6223">
        <ele>568</ele>
        <time>2022-10-08T17:36:36+02:00</time>
      </trkpt>
      <trkpt lat="43.52619" lon="5.62252">
        <ele>568</ele>
        <time>2022-10-08T17:37:10+02:00</time>
      </trkpt>
      <trkpt lat="43.52635" lon="5.62283">
        <ele>563</ele>
        <time>2022-10-08T17:37:44+02:00</time>
      </trkpt>
      <trkpt lat="43.52646" lon="5.62319">
        <ele>556</ele>
        <time>2022-10-08T17:38:05+02:00</time>
      </trkpt>
      <trkpt lat="43.52655" lon="5.62355">
        <ele>548</ele>
        <time>2022-10-08T17:38:40+02:00</time>
      </trkpt>
      <trkpt lat="43.52656" lon="5.62392">
        <ele>540</ele>
        <time>2022-10-08T17:39:05+02:00</time>
      </trkpt>
      <trkpt lat="43.52644" lon="5.62426">
        <ele>533</ele>
        <time>2022-10-08T17:39:41+02:00</time>
      </trkpt>
      <trkpt lat="43.5265" lon="5.62465">
        <ele>527</ele>
        <time>2022-10-08T17:40:07+02:00</time>
      </trkpt>
      <trkpt lat="43.52664" lon="5.62497">
        <ele>521</ele>
        <time>2022-10-08T17:40:29+02:00</time>
      </trkpt>
      <trkpt lat="43.5267" lon="5.62535">
        <ele>517</ele>
        <time>2022-10-08T17:40:43+02:00</time>
      </trkpt>
      <trkpt lat="43.52675" lon="5.62572">
        <ele>513</ele>
        <time>2022-10-08T17:41:02+02:00</time>
      </trkpt>
      <trkpt lat="43.52685" lon="5.62608">
        <ele>513</ele>
        <time>2022-10-08T17:41:21+02:00</time>
      </trkpt>
      <trkpt lat="43.52683" lon="5.62647">
        <ele>512</ele>
        <time>2022-10-08T17:41:41+02:00</time>
      </trkpt>
      <trkpt lat="43.52688" lon="5.62685">
        <ele>513</ele>
        <time>2022-10-08T17:42:02+02:00</time>
      </trkpt>
      <trkpt lat="43.52711" lon="5.62708">
        <ele>511</ele>
        <time>2022-10-08T17:42:19+02:00</time>
      </trkpt>
      <trkpt lat="43.52723" lon="5.62742">
        <ele>508</ele>
        <time>2022-10-08T17:42:45+02:00</time>
      </trkpt>
      <trkpt lat="43.52732" lon="5.62778">
        <ele>506</ele>
        <time>2022-10-08T17:43:10+02:00</time>
      </trkpt>
      <trkpt lat="43.5273" lon="5.62817">
        <ele>502</ele>
        <time>2022-10-08T17:43:43+02:00</time>
      </trkpt>
      <trkpt lat="43.52741" lon="5.62851">
        <ele>498</ele>
        <time>2022-10-08T17:44:06+02:00</time>
      </trkpt>
      <trkpt lat="43.52764" lon="5.62871">
        <ele>498</ele>
        <time>2022-10-08T17:44:28+02:00</time>
      </trkpt>
      <trkpt lat="43.52789" lon="5.6289">
        <ele>499</ele>
        <time>2022-10-08T17:44:44+02:00</time>
      </trkpt>
      <trkpt lat="43.52786" lon="5.62928">
        <ele>491</ele>
        <time>2022-10-08T17:45:22+02:00</time>
      </trkpt>
      <trkpt lat="43.5277" lon="5.62962">
        <ele>483</ele>
        <time>2022-10-08T17:45:51+02:00</time>
      </trkpt>
      <trkpt lat="43.52766" lon="5.63">
        <ele>478</ele>
        <time>2022-10-08T17:46:11+02:00</time>
      </trkpt>
      <trkpt lat="43.52762" lon="5.63036">
        <ele>473</ele>
        <time>2022-10-08T17:46:33+02:00</time>
      </trkpt>
      <trkpt lat="43.52766" lon="5.63073">
        <ele>469</ele>
        <time>2022-10-08T17:46:54+02:00</time>
      </trkpt>
      <trkpt lat="43.52763" lon="5.63111">
        <ele>464</ele>
        <time>2022-10-08T17:47:17+02:00</time>
      </trkpt>
      <trkpt lat="43.52762" lon="5.63148">
        <ele>460</ele>
        <time>2022-10-08T17:47:41+02:00</time>
      </trkpt>
      <trkpt lat="43.52754" lon="5.63185">
        <ele>455</ele>
        <time>2022-10-08T17:48:04+02:00</time>
      </trkpt>
      <trkpt lat="43.52761" lon="5.63221">
        <ele>452</ele>
        <time>2022-10-08T17:48:56+02:00</time>
      </trkpt>
      <trkpt lat="43.52772" lon="5.63256">
        <ele>449</ele>
        <time>2022-10-08T17:49:19+02:00</time>
      </trkpt>
      <trkpt lat="43.52761" lon="5.63291">
        <ele>443</ele>
        <time>2022-10-08T17:49:42+02:00</time>
      </trkpt>
      <trkpt lat="43.5275" lon="5.63326">
        <ele>439</ele>
        <time>2022-10-08T17:50:04+02:00</time>
      </trkpt>
      <trkpt lat="43.52742" lon="5.63363">
        <ele>436</ele>
        <time>2022-10-08T17:50:24+02:00</time>
      </trkpt>
      <trkpt lat="43.52735" lon="5.63399">
        <ele>433</ele>
        <time>2022-10-08T17:50:41+02:00</time>
      </trkpt>
      <trkpt lat="43.52724" lon="5.63434">
        <ele>430</ele>
        <time>2022-10-08T17:51:02+02:00</time>
      </trkpt>
      <trkpt lat="43.52707" lon="5.63464">
        <ele>428</ele>
        <time>2022-10-08T17:51:22+02:00</time>
      </trkpt>
      <trkpt lat="43.52698" lon="5.63502">
        <ele>423</ele>
        <time>2022-10-08T17:51:40+02:00</time>
      </trkpt>
      <trkpt lat="43.52715" lon="5.6353">
        <ele>419</ele>
        <time>2022-10-08T17:51:59+02:00</time>
      </trkpt>
      <trkpt lat="43.52722" lon="5.63568">
        <ele>417</ele>
        <time>2022-10-08T17:52:21+02:00</time>
      </trkpt>
      <trkpt lat="43.52733" lon="5.63605">
        <ele>420</ele>
        <time>2022-10-08T17:52:39+02:00</time>
      </trkpt>
      <trkpt lat="43.52744" lon="5.63641">
        <ele>418</ele>
        <time>2022-10-08T17:52:58+02:00</time>
      </trkpt>
      <trkpt lat="43.52743" lon="5.63679">
        <ele>417</ele>
        <time>2022-10-08T17:53:18+02:00</time>
      </trkpt>
      <trkpt lat="43.52747" lon="5.63717">
        <ele>415</ele>
        <time>2022-10-08T17:53:37+02:00</time>
      </trkpt>
      <trkpt lat="43.52755" lon="5.63753">
        <ele>416</ele>
        <time>2022-10-08T17:53:56+02:00</time>
      </trkpt>
      <trkpt lat="43.52763" lon="5.63789">
        <ele>418</ele>
        <time>2022-10-08T17:54:14+02:00</time>
      </trkpt>
      <trkpt lat="43.52763" lon="5.63827">
        <ele>416</ele>
        <time>2022-10-08T17:54:31+02:00</time>
      </trkpt>
      <trkpt lat="43.52761" lon="5.63865">
        <ele>414</ele>
        <time>2022-10-08T17:54:49+02:00</time>
      </trkpt>
      <trkpt lat="43.52759" lon="5.63902">
        <ele>416</ele>
        <time>2022-10-08T17:55:07+02:00</time>
      </trkpt>
      <trkpt lat="43.52754" lon="5.63939">
        <ele>413</ele>
        <time>2022-10-08T17:55:27+02:00</time>
      </trkpt>
      <trkpt lat="43.52755" lon="5.63977">
        <ele>411</ele>
        <time>2022-10-08T17:55:45+02:00</time>
      </trkpt>
      <trkpt lat="43.52759" lon="5.64016">
        <ele>414</ele>
        <time>2022-10-08T17:56:05+02:00</time>
      </trkpt>
      <trkpt lat="43.5276" lon="5.64054">
        <ele>414</ele>
        <time>2022-10-08T17:56:23+02:00</time>
      </trkpt>
      <trkpt lat="43.52761" lon="5.64093">
        <ele>415</ele>
        <time>2022-10-08T17:56:44+02:00</time>
      </trkpt>
      <trkpt lat="43.52762" lon="5.64131">
        <ele>412</ele>
        <time>2022-10-08T17:57:03+02:00</time>
      </trkpt>
      <trkpt lat="43.52768" lon="5.64167">
        <ele>408</ele>
        <time>2022-10-08T17:57:23+02:00</time>
      </trkpt>
      <trkpt lat="43.52776" lon="5.64203">
        <ele>405</ele>
        <time>2022-10-08T17:57:41+02:00</time>
      </trkpt>
      <trkpt lat="43.52779" lon="5.6424">
        <ele>401</ele>
        <time>2022-10-08T17:57:59+02:00</time>
      </trkpt>
      <trkpt lat="43.52785" lon="5.64278">
        <ele>399</ele>
        <time>2022-10-08T17:58:18+02:00</time>
      </trkpt>
      <trkpt lat="43.52784" lon="5.64315">
        <ele>401</ele>
        <time>2022-10-08T17:58:37+02:00</time>
      </trkpt>
    </trkseg>
  </trk>
</gpx>